<?xml version='1.0' encoding='UTF-8'?><gpx version="1.1" creator="JPX - https://github.com/jenetics/jpx" xmlns="http://www.topografix.com/GPX/1/1"><trk><trkseg><trkpt lat="44.73680847760389" lon="8.335590859312948"><ele>155.85714285714286</ele><time>2026-04-23T15:15:20.496Z</time></trkpt><trkpt lat="44.73685820969687" lon="8.335519589400128"><ele>155.7142857142857</ele><time>2026-04-23T15:15:27.97Z</time></trkpt><trkpt lat="44.73690612555787" lon="8.335455829003806"><ele>155.57142857142856</ele><time>2026-04-23T15:15:32.969Z</time></trkpt><trkpt lat="44.73696501229989" lon="8.335421936048133"><ele>155.42857142857144</ele><time>2026-04-23T15:15:37.969Z</time></trkpt><trkpt lat="44.73702117861107" lon="8.335368998827796"><ele>155.28571428571428</ele><time>2026-04-23T15:15:43.969Z</time></trkpt><trkpt lat="44.73707815997438" lon="8.335318827779279"><ele>155.14285714285714</ele><time>2026-04-23T15:15:49.969Z</time></trkpt><trkpt lat="44.73714139357799" lon="8.33526575566815"><ele>155.0</ele><time>2026-04-23T15:15:56.969Z</time></trkpt><trkpt lat="44.73719536897588" lon="8.335216085692414"><ele>154.71428571428572</ele><time>2026-04-23T15:16:02.969Z</time></trkpt><trkpt lat="44.73725857538443" lon="8.335168147551794"><ele>154.42857142857142</ele><time>2026-04-23T15:16:08.969Z</time></trkpt><trkpt lat="44.73732873347907" lon="8.335128467096334"><ele>154.14285714285714</ele><time>2026-04-23T15:16:13.969Z</time></trkpt><trkpt lat="44.7373928672769" lon="8.335078529624052"><ele>153.85714285714286</ele><time>2026-04-23T15:16:19.969Z</time></trkpt><trkpt lat="44.73745207023992" lon="8.335025213985713"><ele>153.57142857142858</ele><time>2026-04-23T15:16:26.969Z</time></trkpt><trkpt lat="44.73751702760326" lon="8.334975100908466"><ele>153.28571428571428</ele><time>2026-04-23T15:16:32.969Z</time></trkpt><trkpt lat="44.73758278994643" lon="8.334936193733755"><ele>153.0</ele><time>2026-04-23T15:16:38.969Z</time></trkpt><trkpt lat="44.73764471264063" lon="8.334888009425587"><ele>153.0</ele><time>2026-04-23T15:16:44.969Z</time></trkpt><trkpt lat="44.73771750333475" lon="8.334876314026998"><ele>153.0</ele><time>2026-04-23T15:16:50.969Z</time></trkpt><trkpt lat="44.73775048993356" lon="8.334951954935972"><ele>153.0</ele><time>2026-04-23T15:16:56.969Z</time></trkpt><trkpt lat="44.7377901608388" lon="8.335040722302951"><ele>153.0</ele><time>2026-04-23T15:17:02.969Z</time></trkpt><trkpt lat="44.73781737056934" lon="8.335131694638662"><ele>153.0</ele><time>2026-04-23T15:17:08.969Z</time></trkpt><trkpt lat="44.737848993116685" lon="8.335217367224436"><ele>153.0</ele><time>2026-04-23T15:17:14.975Z</time></trkpt><trkpt lat="44.73787799068985" lon="8.33530370517797"><ele>153.0</ele><time>2026-04-23T15:17:19.982Z</time></trkpt><trkpt lat="44.737909920572804" lon="8.335393833881147"><ele>152.85714285714286</ele><time>2026-04-23T15:17:25.988Z</time></trkpt><trkpt lat="44.73794328902904" lon="8.335484715967945"><ele>152.71428571428572</ele><time>2026-04-23T15:17:31.992Z</time></trkpt><trkpt lat="44.73797665644657" lon="8.335565109161902"><ele>152.57142857142856</ele><time>2026-04-23T15:17:36.995Z</time></trkpt><trkpt lat="44.73801004480076" lon="8.335647985887165"><ele>152.42857142857144</ele><time>2026-04-23T15:17:42.997Z</time></trkpt><trkpt lat="44.738028495084976" lon="8.335733064230633"><ele>152.2857142857143</ele><time>2026-04-23T15:17:48.998Z</time></trkpt><trkpt lat="44.737956418747345" lon="8.33576032068595"><ele>152.14285714285714</ele><time>2026-04-23T15:17:54.999Z</time></trkpt><trkpt lat="44.737900886320425" lon="8.335826486293277"><ele>152.0</ele><time>2026-04-23T15:18:00.999Z</time></trkpt><trkpt lat="44.73791000030907" lon="8.335917423604918"><ele>152.0</ele><time>2026-04-23T15:18:06Z</time></trkpt><trkpt lat="44.737932317450614" lon="8.336002331675418"><ele>152.0</ele><time>2026-04-23T15:18:11Z</time></trkpt><trkpt lat="44.73795744483763" lon="8.336094748517791"><ele>152.0</ele><time>2026-04-23T15:18:17Z</time></trkpt><trkpt lat="44.73797948016801" lon="8.336191670568404"><ele>152.0</ele><time>2026-04-23T15:18:23Z</time></trkpt><trkpt lat="44.73799987916718" lon="8.336291269187823"><ele>152.0</ele><time>2026-04-23T15:18:29Z</time></trkpt><trkpt lat="44.73802288397545" lon="8.336377700286723"><ele>152.0</ele><time>2026-04-23T15:18:35Z</time></trkpt><trkpt lat="44.738038661959244" lon="8.336463652689808"><ele>152.0</ele><time>2026-04-23T15:18:41.001Z</time></trkpt><trkpt lat="44.738052050906475" lon="8.336553595684993"><ele>152.0</ele><time>2026-04-23T15:18:47.001Z</time></trkpt><trkpt lat="44.73807135035984" lon="8.336640494770926"><ele>152.0</ele><time>2026-04-23T15:18:53.001Z</time></trkpt><trkpt lat="44.73809442305442" lon="8.33672899537745"><ele>152.0</ele><time>2026-04-23T15:18:59.001Z</time></trkpt><trkpt lat="44.73811481542629" lon="8.33682198927499"><ele>152.0</ele><time>2026-04-23T15:19:05.001Z</time></trkpt><trkpt lat="44.73813705022863" lon="8.336914529468165"><ele>152.0</ele><time>2026-04-23T15:19:11.001Z</time></trkpt><trkpt lat="44.738169776613866" lon="8.337008046993844"><ele>152.0</ele><time>2026-04-23T15:19:18.001Z</time></trkpt><trkpt lat="44.7382203773503" lon="8.33706253051088"><ele>152.0</ele><time>2026-04-23T15:19:24.001Z</time></trkpt><trkpt lat="44.73827892646768" lon="8.33711886097295"><ele>152.0</ele><time>2026-04-23T15:19:30.001Z</time></trkpt><trkpt lat="44.73834571346357" lon="8.337148831259933"><ele>152.0</ele><time>2026-04-23T15:19:36.001Z</time></trkpt><trkpt lat="44.73841446528846" lon="8.337185162906533"><ele>152.0</ele><time>2026-04-23T15:19:42Z</time></trkpt><trkpt lat="44.738486406041545" lon="8.337213454575073"><ele>152.0</ele><time>2026-04-23T15:19:48Z</time></trkpt><trkpt lat="44.738556499706206" lon="8.337242982388403"><ele>152.0</ele><time>2026-04-23T15:19:55Z</time></trkpt><trkpt lat="44.73862568266565" lon="8.337273616278997"><ele>152.0</ele><time>2026-04-23T15:20:02Z</time></trkpt><trkpt lat="44.73868776004477" lon="8.337309267887765"><ele>152.0</ele><time>2026-04-23T15:20:08Z</time></trkpt><trkpt lat="44.738753867356" lon="8.337333936357728"><ele>152.0</ele><time>2026-04-23T15:20:14Z</time></trkpt><trkpt lat="44.73881604644098" lon="8.337369788201151"><ele>152.0</ele><time>2026-04-23T15:20:20Z</time></trkpt><trkpt lat="44.738876938811366" lon="8.337395249719172"><ele>152.0</ele><time>2026-04-23T15:20:26Z</time></trkpt><trkpt lat="44.73894391155192" lon="8.337431523493214"><ele>152.0</ele><time>2026-04-23T15:20:32Z</time></trkpt><trkpt lat="44.739011451997754" lon="8.337471950661506"><ele>152.0</ele><time>2026-04-23T15:20:39Z</time></trkpt><trkpt lat="44.73907623082385" lon="8.337501798206542"><ele>152.0</ele><time>2026-04-23T15:20:44Z</time></trkpt><trkpt lat="44.73914040962966" lon="8.337529655680687"><ele>152.0</ele><time>2026-04-23T15:20:50Z</time></trkpt><trkpt lat="44.73920572840657" lon="8.337553778282489"><ele>152.0</ele><time>2026-04-23T15:20:56Z</time></trkpt><trkpt lat="44.73927327337557" lon="8.337587144289309"><ele>152.0</ele><time>2026-04-23T15:21:03Z</time></trkpt><trkpt lat="44.739338133366665" lon="8.33761113349922"><ele>152.0</ele><time>2026-04-23T15:21:09Z</time></trkpt><trkpt lat="44.739406391565986" lon="8.337645550181268"><ele>152.0</ele><time>2026-04-23T15:21:15Z</time></trkpt><trkpt lat="44.73946300150482" lon="8.337685988249255"><ele>152.0</ele><time>2026-04-23T15:21:21Z</time></trkpt><trkpt lat="44.73953382551151" lon="8.337728335932425"><ele>152.0</ele><time>2026-04-23T15:21:28Z</time></trkpt><trkpt lat="44.73959819273802" lon="8.337757526477368"><ele>152.0</ele><time>2026-04-23T15:21:33Z</time></trkpt><trkpt lat="44.7396598091216" lon="8.337787765587313"><ele>151.42857142857142</ele><time>2026-04-23T15:21:38Z</time></trkpt><trkpt lat="44.73972036954616" lon="8.33783173523312"><ele>150.85714285714286</ele><time>2026-04-23T15:21:44Z</time></trkpt><trkpt lat="44.73978154477079" lon="8.337863510676671"><ele>150.28571428571428</ele><time>2026-04-23T15:21:50Z</time></trkpt><trkpt lat="44.73984206345012" lon="8.337904249957012"><ele>149.71428571428572</ele><time>2026-04-23T15:21:57Z</time></trkpt><trkpt lat="44.7399093845849" lon="8.337961228649627"><ele>149.14285714285714</ele><time>2026-04-23T15:22:06Z</time></trkpt><trkpt lat="44.73996855465297" lon="8.338000471892308"><ele>148.57142857142858</ele><time>2026-04-23T15:22:12Z</time></trkpt><trkpt lat="44.740029244663965" lon="8.338051522975553"><ele>148.0</ele><time>2026-04-23T15:22:18Z</time></trkpt><trkpt lat="44.7400966794441" lon="8.338096743154514"><ele>148.0</ele><time>2026-04-23T15:22:24Z</time></trkpt><trkpt lat="44.74015351534077" lon="8.338136021213309"><ele>148.0</ele><time>2026-04-23T15:22:30Z</time></trkpt><trkpt lat="44.740217026846516" lon="8.338165297516747"><ele>148.0</ele><time>2026-04-23T15:22:37Z</time></trkpt><trkpt lat="44.74027502604559" lon="8.338208103487489"><ele>148.0</ele><time>2026-04-23T15:22:43Z</time></trkpt><trkpt lat="44.74033234758033" lon="8.338258011312481"><ele>148.0</ele><time>2026-04-23T15:22:48.999Z</time></trkpt><trkpt lat="44.74038960280407" lon="8.338307748111811"><ele>148.0</ele><time>2026-04-23T15:22:54.999Z</time></trkpt><trkpt lat="44.740446314472145" lon="8.338348780625667"><ele>148.0</ele><time>2026-04-23T15:22:59.999Z</time></trkpt><trkpt lat="44.74051219601561" lon="8.338386096868968"><ele>148.0</ele><time>2026-04-23T15:23:05.999Z</time></trkpt><trkpt lat="44.74057419963823" lon="8.33842550384304"><ele>148.0</ele><time>2026-04-23T15:23:11.999Z</time></trkpt><trkpt lat="44.74062774918215" lon="8.338474290603333"><ele>148.0</ele><time>2026-04-23T15:23:16.999Z</time></trkpt><trkpt lat="44.740691302906825" lon="8.338501563977585"><ele>148.0</ele><time>2026-04-23T15:23:21.999Z</time></trkpt><trkpt lat="44.7407487378514" lon="8.338546405158533"><ele>148.0</ele><time>2026-04-23T15:23:29Z</time></trkpt><trkpt lat="44.74080686376127" lon="8.338602777695971"><ele>148.0</ele><time>2026-04-23T15:23:40Z</time></trkpt><trkpt lat="44.74086013031671" lon="8.338653197019395"><ele>148.0</ele><time>2026-04-23T15:23:46Z</time></trkpt><trkpt lat="44.74091311238499" lon="8.338702741449115"><ele>148.0</ele><time>2026-04-23T15:23:51Z</time></trkpt><trkpt lat="44.74097484382102" lon="8.338760508968376"><ele>148.0</ele><time>2026-04-23T15:23:58Z</time></trkpt><trkpt lat="44.7410293302976" lon="8.338810454627739"><ele>148.0</ele><time>2026-04-23T15:24:04Z</time></trkpt><trkpt lat="44.74108777162131" lon="8.338879414384245"><ele>148.0</ele><time>2026-04-23T15:24:10Z</time></trkpt><trkpt lat="44.74114400123224" lon="8.338944170806327"><ele>148.0</ele><time>2026-04-23T15:24:17Z</time></trkpt><trkpt lat="44.74120044905789" lon="8.338995734558786"><ele>148.0</ele><time>2026-04-23T15:24:23Z</time></trkpt><trkpt lat="44.74125341608375" lon="8.339045045535215"><ele>148.0</ele><time>2026-04-23T15:24:28Z</time></trkpt><trkpt lat="44.74130587853353" lon="8.339100856005931"><ele>147.85714285714286</ele><time>2026-04-23T15:24:33.999Z</time></trkpt><trkpt lat="44.74136097782788" lon="8.339161406400299"><ele>147.71428571428572</ele><time>2026-04-23T15:24:39.999Z</time></trkpt><trkpt lat="44.74140959138959" lon="8.339227077716604"><ele>147.57142857142856</ele><time>2026-04-23T15:24:45.999Z</time></trkpt><trkpt lat="44.74146439651519" lon="8.339278506791922"><ele>147.42857142857144</ele><time>2026-04-23T15:24:50.999Z</time></trkpt><trkpt lat="44.7415309946834" lon="8.339325161350269"><ele>147.28571428571428</ele><time>2026-04-23T15:24:56.999Z</time></trkpt><trkpt lat="44.741587065760655" lon="8.339392639060701"><ele>147.14285714285714</ele><time>2026-04-23T15:25:02.999Z</time></trkpt><trkpt lat="44.741639467943486" lon="8.339451477678749"><ele>147.0</ele><time>2026-04-23T15:25:08.999Z</time></trkpt><trkpt lat="44.7416992350722" lon="8.33949984108883"><ele>147.0</ele><time>2026-04-23T15:25:14.999Z</time></trkpt><trkpt lat="44.74175683525625" lon="8.339551732564239"><ele>147.0</ele><time>2026-04-23T15:25:20.999Z</time></trkpt><trkpt lat="44.74181280904855" lon="8.339597799055806"><ele>147.0</ele><time>2026-04-23T15:25:26.999Z</time></trkpt><trkpt lat="44.74186333116613" lon="8.339653657220392"><ele>147.0</ele><time>2026-04-23T15:25:31.999Z</time></trkpt><trkpt lat="44.741908660376296" lon="8.339738988454501"><ele>147.0</ele><time>2026-04-23T15:25:38Z</time></trkpt><trkpt lat="44.74197075452828" lon="8.339781182738712"><ele>147.0</ele><time>2026-04-23T15:25:44Z</time></trkpt><trkpt lat="44.74202262919394" lon="8.339831804124715"><ele>147.0</ele><time>2026-04-23T15:25:49Z</time></trkpt><trkpt lat="44.74207756671985" lon="8.339879993834593"><ele>146.85714285714286</ele><time>2026-04-23T15:25:55Z</time></trkpt><trkpt lat="44.74213477384472" lon="8.339935328210837"><ele>146.71428571428572</ele><time>2026-04-23T15:26:07Z</time></trkpt><trkpt lat="44.742192750579235" lon="8.339984976457975"><ele>146.57142857142856</ele><time>2026-04-23T15:26:13Z</time></trkpt><trkpt lat="44.74225269019424" lon="8.340040941197909"><ele>146.42857142857144</ele><time>2026-04-23T15:26:20Z</time></trkpt><trkpt lat="44.74231183547002" lon="8.340100576170569"><ele>146.28571428571428</ele><time>2026-04-23T15:26:27Z</time></trkpt><trkpt lat="44.74236663717264" lon="8.340146464719233"><ele>146.14285714285714</ele><time>2026-04-23T15:26:32.999Z</time></trkpt><trkpt lat="44.742425937628084" lon="8.340200355190767"><ele>146.0</ele><time>2026-04-23T15:26:38.999Z</time></trkpt><trkpt lat="44.74254149318747" lon="8.34028304269173"><ele>146.0</ele><time>2026-04-23T15:26:59.999Z</time></trkpt><trkpt lat="44.74259315439729" lon="8.340335312213465"><ele>146.0</ele><time>2026-04-23T15:27:04.999Z</time></trkpt><trkpt lat="44.742646535929275" lon="8.340396945769255"><ele>146.0</ele><time>2026-04-23T15:27:09.999Z</time></trkpt><trkpt lat="44.742702203686704" lon="8.340444733020348"><ele>146.0</ele><time>2026-04-23T15:27:14.999Z</time></trkpt><trkpt lat="44.742762714863076" lon="8.340500726935568"><ele>146.0</ele><time>2026-04-23T15:27:21.999Z</time></trkpt><trkpt lat="44.742822529555" lon="8.340559319128607"><ele>146.0</ele><time>2026-04-23T15:27:27.999Z</time></trkpt><trkpt lat="44.74288132596664" lon="8.34059758026943"><ele>146.0</ele><time>2026-04-23T15:27:33.999Z</time></trkpt><trkpt lat="44.74293605232898" lon="8.340662444765009"><ele>146.0</ele><time>2026-04-23T15:27:40Z</time></trkpt><trkpt lat="44.74299515377002" lon="8.340725368624653"><ele>146.0</ele><time>2026-04-23T15:27:46Z</time></trkpt><trkpt lat="44.74305446788366" lon="8.340776389266747"><ele>146.0</ele><time>2026-04-23T15:27:52Z</time></trkpt><trkpt lat="44.74311284507432" lon="8.340824069383851"><ele>146.0</ele><time>2026-04-23T15:27:58Z</time></trkpt><trkpt lat="44.74316445990416" lon="8.340881999306065"><ele>146.0</ele><time>2026-04-23T15:28:03Z</time></trkpt><trkpt lat="44.74321590030036" lon="8.340942963368857"><ele>146.0</ele><time>2026-04-23T15:28:08Z</time></trkpt><trkpt lat="44.74327139174003" lon="8.340988594034313"><ele>146.0</ele><time>2026-04-23T15:28:14Z</time></trkpt><trkpt lat="44.74332634481919" lon="8.341047364055377"><ele>146.0</ele><time>2026-04-23T15:28:20Z</time></trkpt><trkpt lat="44.74338652147155" lon="8.341107366666835"><ele>146.0</ele><time>2026-04-23T15:28:25.999Z</time></trkpt><trkpt lat="44.743440408821115" lon="8.341159550829973"><ele>146.0</ele><time>2026-04-23T15:28:30.999Z</time></trkpt><trkpt lat="44.743496110216384" lon="8.341208912327652"><ele>146.0</ele><time>2026-04-23T15:28:36.999Z</time></trkpt><trkpt lat="44.74355034044738" lon="8.341255812021005"><ele>146.0</ele><time>2026-04-23T15:28:41.999Z</time></trkpt><trkpt lat="44.74360177501964" lon="8.341306980301397"><ele>146.0</ele><time>2026-04-23T15:28:47.999Z</time></trkpt><trkpt lat="44.74365470499406" lon="8.341358070580386"><ele>146.0</ele><time>2026-04-23T15:28:52.999Z</time></trkpt><trkpt lat="44.74371147609834" lon="8.341407982721536"><ele>146.14285714285714</ele><time>2026-04-23T15:28:58.999Z</time></trkpt><trkpt lat="44.74377386294246" lon="8.341465502199966"><ele>146.28571428571428</ele><time>2026-04-23T15:29:04.999Z</time></trkpt><trkpt lat="44.74383410091776" lon="8.341520285522769"><ele>146.42857142857144</ele><time>2026-04-23T15:29:10.999Z</time></trkpt><trkpt lat="44.7439019444051" lon="8.341560582551251"><ele>146.57142857142856</ele><time>2026-04-23T15:29:16.999Z</time></trkpt><trkpt lat="44.74396399520756" lon="8.341583735277242"><ele>146.71428571428572</ele><time>2026-04-23T15:29:21.999Z</time></trkpt><trkpt lat="44.74402926645381" lon="8.34160314576908"><ele>146.85714285714286</ele><time>2026-04-23T15:29:27.999Z</time></trkpt><trkpt lat="44.7440932526715" lon="8.341556041612584"><ele>147.0</ele><time>2026-04-23T15:29:32.999Z</time></trkpt><trkpt lat="44.7441519180875" lon="8.341504187395758"><ele>147.0</ele><time>2026-04-23T15:29:38.999Z</time></trkpt><trkpt lat="44.74420205399439" lon="8.341429735662762"><ele>147.0</ele><time>2026-04-23T15:29:45Z</time></trkpt><trkpt lat="44.74423871216914" lon="8.341356638906637"><ele>147.0</ele><time>2026-04-23T15:29:51Z</time></trkpt><trkpt lat="44.7442909706836" lon="8.34129771898219"><ele>147.0</ele><time>2026-04-23T15:29:57Z</time></trkpt><trkpt lat="44.744344737815865" lon="8.341230450974093"><ele>147.0</ele><time>2026-04-23T15:30:03Z</time></trkpt><trkpt lat="44.74439680410114" lon="8.341164005202634"><ele>147.0</ele><time>2026-04-23T15:30:09Z</time></trkpt><trkpt lat="44.744448289414706" lon="8.341097929201435"><ele>147.0</ele><time>2026-04-23T15:30:15Z</time></trkpt><trkpt lat="44.74449790358695" lon="8.341026788774212"><ele>147.0</ele><time>2026-04-23T15:30:21Z</time></trkpt><trkpt lat="44.74454269360381" lon="8.340960885980806"><ele>147.0</ele><time>2026-04-23T15:30:27Z</time></trkpt><trkpt lat="44.7445910108862" lon="8.340900786959345"><ele>147.0</ele><time>2026-04-23T15:30:32.999Z</time></trkpt><trkpt lat="44.74463620705864" lon="8.340823866647208"><ele>147.0</ele><time>2026-04-23T15:30:38.999Z</time></trkpt><trkpt lat="44.74468635457999" lon="8.34075611835164"><ele>147.0</ele><time>2026-04-23T15:30:44.999Z</time></trkpt><trkpt lat="44.744733819627434" lon="8.34068314879477"><ele>147.0</ele><time>2026-04-23T15:30:50.999Z</time></trkpt><trkpt lat="44.74479174020104" lon="8.340610899500426"><ele>147.0</ele><time>2026-04-23T15:30:56.999Z</time></trkpt><trkpt lat="44.74483394602818" lon="8.340543760111014"><ele>147.0</ele><time>2026-04-23T15:31:02.999Z</time></trkpt><trkpt lat="44.74487896721993" lon="8.340475030328536"><ele>147.0</ele><time>2026-04-23T15:31:08.999Z</time></trkpt><trkpt lat="44.744933768185525" lon="8.340406192496536"><ele>147.0</ele><time>2026-04-23T15:31:14.999Z</time></trkpt><trkpt lat="44.74497601775634" lon="8.34033461645202"><ele>147.0</ele><time>2026-04-23T15:31:20.999Z</time></trkpt><trkpt lat="44.74502261613033" lon="8.340264299012102"><ele>147.0</ele><time>2026-04-23T15:31:26.999Z</time></trkpt><trkpt lat="44.745069292557965" lon="8.340183464926989"><ele>147.0</ele><time>2026-04-23T15:31:32.999Z</time></trkpt><trkpt lat="44.74512315733997" lon="8.340109235013257"><ele>147.0</ele><time>2026-04-23T15:31:38.999Z</time></trkpt><trkpt lat="44.74516968128969" lon="8.340040111195014"><ele>146.57142857142858</ele><time>2026-04-23T15:31:44.999Z</time></trkpt><trkpt lat="44.74522382218078" lon="8.339965839991748"><ele>146.14285714285714</ele><time>2026-04-23T15:31:51Z</time></trkpt><trkpt lat="44.74527813018582" lon="8.339893715270941"><ele>145.71428571428572</ele><time>2026-04-23T15:31:57Z</time></trkpt><trkpt lat="44.74532756527688" lon="8.339823663376455"><ele>145.28571428571428</ele><time>2026-04-23T15:32:03Z</time></trkpt><trkpt lat="44.745374439401786" lon="8.339752222183755"><ele>144.85714285714286</ele><time>2026-04-23T15:32:09Z</time></trkpt><trkpt lat="44.74541731880825" lon="8.339679900255158"><ele>144.42857142857144</ele><time>2026-04-23T15:32:15Z</time></trkpt><trkpt lat="44.74546897612328" lon="8.339610416076118"><ele>144.0</ele><time>2026-04-23T15:32:21Z</time></trkpt><trkpt lat="44.745520252538455" lon="8.339552357945454"><ele>144.00000000000003</ele><time>2026-04-23T15:32:27Z</time></trkpt><trkpt lat="44.74556967254105" lon="8.339471967948537"><ele>144.0</ele><time>2026-04-23T15:32:32.999Z</time></trkpt><trkpt lat="44.74561774557359" lon="8.339412662367092"><ele>144.0</ele><time>2026-04-23T15:32:37.999Z</time></trkpt><trkpt lat="44.74566437620589" lon="8.339345417752018"><ele>144.0</ele><time>2026-04-23T15:32:43.999Z</time></trkpt><trkpt lat="44.74570209882449" lon="8.339270484948942"><ele>144.0</ele><time>2026-04-23T15:32:49.999Z</time></trkpt><trkpt lat="44.74574682091552" lon="8.339200525626838"><ele>144.00000000000003</ele><time>2026-04-23T15:32:55.999Z</time></trkpt><trkpt lat="44.74579741878494" lon="8.339139334308259"><ele>144.0</ele><time>2026-04-23T15:33:00.999Z</time></trkpt><trkpt lat="44.74584089834242" lon="8.339073874762825"><ele>144.00000000000003</ele><time>2026-04-23T15:33:06.999Z</time></trkpt><trkpt lat="44.745890647956315" lon="8.339006230949513"><ele>144.0</ele><time>2026-04-23T15:33:12.999Z</time></trkpt><trkpt lat="44.74593980445251" lon="8.33893676766326"><ele>144.0</ele><time>2026-04-23T15:33:18.999Z</time></trkpt><trkpt lat="44.745990257677676" lon="8.338876960113646"><ele>144.0</ele><time>2026-04-23T15:33:25.999Z</time></trkpt><trkpt lat="44.74604579919609" lon="8.338815989963292"><ele>144.0</ele><time>2026-04-23T15:33:31.999Z</time></trkpt><trkpt lat="44.74609511436579" lon="8.33873482108833"><ele>144.00000000000003</ele><time>2026-04-23T15:33:37.999Z</time></trkpt><trkpt lat="44.746150854133674" lon="8.338671952093472"><ele>144.0</ele><time>2026-04-23T15:33:43.999Z</time></trkpt><trkpt lat="44.746210462641606" lon="8.338609123457465"><ele>144.00000000000003</ele><time>2026-04-23T15:33:50.999Z</time></trkpt><trkpt lat="44.74627061057526" lon="8.338574527839219"><ele>144.0</ele><time>2026-04-23T15:33:57Z</time></trkpt><trkpt lat="44.746338289723425" lon="8.338604267856338"><ele>144.0</ele><time>2026-04-23T15:34:04Z</time></trkpt><trkpt lat="44.7464031542513" lon="8.338650509186415"><ele>144.0</ele><time>2026-04-23T15:34:23Z</time></trkpt><trkpt lat="44.746456398438866" lon="8.33872231679969"><ele>144.0</ele><time>2026-04-23T15:34:30Z</time></trkpt><trkpt lat="44.746503580859425" lon="8.338797843106065"><ele>144.00000000000003</ele><time>2026-04-23T15:34:36.999Z</time></trkpt><trkpt lat="44.74656440606236" lon="8.338863129812754"><ele>144.0</ele><time>2026-04-23T15:34:43.999Z</time></trkpt><trkpt lat="44.74660968714395" lon="8.338928597900866"><ele>144.00000000000003</ele><time>2026-04-23T15:34:49.999Z</time></trkpt><trkpt lat="44.7466633886717" lon="8.338998076500788"><ele>144.0</ele><time>2026-04-23T15:34:55.999Z</time></trkpt><trkpt lat="44.74671382594596" lon="8.33905365697791"><ele>144.0</ele><time>2026-04-23T15:35:01.999Z</time></trkpt><trkpt lat="44.74676657999625" lon="8.3391270202762"><ele>144.0</ele><time>2026-04-23T15:35:08.999Z</time></trkpt><trkpt lat="44.74682079381254" lon="8.339188397442586"><ele>144.0</ele><time>2026-04-23T15:35:14.999Z</time></trkpt><trkpt lat="44.74686626964735" lon="8.339256238639038"><ele>144.00000000000003</ele><time>2026-04-23T15:35:20.999Z</time></trkpt><trkpt lat="44.746912309945024" lon="8.339322506399279"><ele>144.0</ele><time>2026-04-23T15:35:26.999Z</time></trkpt><trkpt lat="44.746963935754124" lon="8.339384524400753"><ele>143.85714285714286</ele><time>2026-04-23T15:35:32.999Z</time></trkpt><trkpt lat="44.74701531327003" lon="8.339440897949967"><ele>143.71428571428572</ele><time>2026-04-23T15:35:38.999Z</time></trkpt><trkpt lat="44.74706668482137" lon="8.339508332047606"><ele>143.57142857142856</ele><time>2026-04-23T15:35:43.999Z</time></trkpt><trkpt lat="44.74712242686746" lon="8.339566580877628"><ele>143.42857142857144</ele><time>2026-04-23T15:35:50.999Z</time></trkpt><trkpt lat="44.747171975631304" lon="8.339626167319459"><ele>143.28571428571428</ele><time>2026-04-23T15:35:56.999Z</time></trkpt><trkpt lat="44.74722061098376" lon="8.339687423409037"><ele>143.14285714285714</ele><time>2026-04-23T15:36:03Z</time></trkpt><trkpt lat="44.74727997380037" lon="8.339743301007005"><ele>143.0</ele><time>2026-04-23T15:36:09Z</time></trkpt><trkpt lat="44.747338940593885" lon="8.33979919632782"><ele>142.99999999999997</ele><time>2026-04-23T15:36:15Z</time></trkpt><trkpt lat="44.74738330252717" lon="8.33986702273294"><ele>143.0</ele><time>2026-04-23T15:36:21Z</time></trkpt><trkpt lat="44.747447658712645" lon="8.339925737308276"><ele>143.0</ele><time>2026-04-23T15:36:28Z</time></trkpt><trkpt lat="44.747502427318274" lon="8.339977155285402"><ele>143.0</ele><time>2026-04-23T15:36:34Z</time></trkpt><trkpt lat="44.747565024598984" lon="8.34001272712371"><ele>143.0</ele><time>2026-04-23T15:36:40.999Z</time></trkpt><trkpt lat="44.747604370908505" lon="8.340100861659243"><ele>142.99999999999997</ele><time>2026-04-23T15:36:48.999Z</time></trkpt><trkpt lat="44.7475755218516" lon="8.340201904695279"><ele>143.0</ele><time>2026-04-23T15:36:55.999Z</time></trkpt><trkpt lat="44.74753531050138" lon="8.340274165310309"><ele>142.99999999999997</ele><time>2026-04-23T15:37:01.999Z</time></trkpt><trkpt lat="44.74748871936286" lon="8.34034729297428"><ele>143.0</ele><time>2026-04-23T15:37:07.999Z</time></trkpt><trkpt lat="44.74745713761664" lon="8.340434156561509"><ele>143.0</ele><time>2026-04-23T15:37:13.999Z</time></trkpt><trkpt lat="44.74746832203951" lon="8.340530008577213"><ele>143.0</ele><time>2026-04-23T15:37:19.999Z</time></trkpt><trkpt lat="44.74751103387197" lon="8.34060946443059"><ele>143.0</ele><time>2026-04-23T15:37:26.999Z</time></trkpt><trkpt lat="44.74756548352564" lon="8.340673019271943"><ele>142.99999999999997</ele><time>2026-04-23T15:37:33.999Z</time></trkpt><trkpt lat="44.74762616007516" lon="8.34072571270015"><ele>143.0</ele><time>2026-04-23T15:37:39.999Z</time></trkpt><trkpt lat="44.74768365130536" lon="8.340778792922798"><ele>143.14285714285714</ele><time>2026-04-23T15:37:44.999Z</time></trkpt><trkpt lat="44.74773593789045" lon="8.340836190726733"><ele>143.28571428571428</ele><time>2026-04-23T15:37:50.999Z</time></trkpt><trkpt lat="44.74778958161315" lon="8.340886821104986"><ele>143.42857142857144</ele><time>2026-04-23T15:37:56.999Z</time></trkpt><trkpt lat="44.747845421148234" lon="8.340939111773581"><ele>143.57142857142856</ele><time>2026-04-23T15:38:02.999Z</time></trkpt><trkpt lat="44.747895082203776" lon="8.340993851747735"><ele>143.71428571428572</ele><time>2026-04-23T15:38:09Z</time></trkpt><trkpt lat="44.74795323873219" lon="8.341040890061862"><ele>143.85714285714286</ele><time>2026-04-23T15:38:15Z</time></trkpt><trkpt lat="44.74800991308562" lon="8.341090196815431"><ele>144.0</ele><time>2026-04-23T15:38:21Z</time></trkpt><trkpt lat="44.74806205360435" lon="8.341142328214364"><ele>144.00000000000003</ele><time>2026-04-23T15:38:27Z</time></trkpt><trkpt lat="44.748125755767376" lon="8.341189877511932"><ele>144.0</ele><time>2026-04-23T15:38:33Z</time></trkpt><trkpt lat="44.74818558202885" lon="8.341247941927131"><ele>144.0</ele><time>2026-04-23T15:38:39Z</time></trkpt><trkpt lat="44.74823427292185" lon="8.341305048864857"><ele>144.0</ele><time>2026-04-23T15:38:44.999Z</time></trkpt><trkpt lat="44.74829378101814" lon="8.341361372464318"><ele>144.0</ele><time>2026-04-23T15:38:49.999Z</time></trkpt><trkpt lat="44.74835187700662" lon="8.341412299925521"><ele>144.00000000000003</ele><time>2026-04-23T15:38:55.999Z</time></trkpt><trkpt lat="44.74841154235911" lon="8.341453740341613"><ele>144.0</ele><time>2026-04-23T15:39:01.999Z</time></trkpt><trkpt lat="44.74846968551791" lon="8.341407608662088"><ele>144.00000000000003</ele><time>2026-04-23T15:39:10.999Z</time></trkpt><trkpt lat="44.74853577136492" lon="8.341389818391656"><ele>144.0</ele><time>2026-04-23T15:39:19.999Z</time></trkpt><trkpt lat="44.74860693746944" lon="8.341366589542957"><ele>144.0</ele><time>2026-04-23T15:39:27.999Z</time></trkpt><trkpt lat="44.7486744277014" lon="8.341354357159583"><ele>144.0</ele><time>2026-04-23T15:39:42.999Z</time></trkpt><trkpt lat="44.74871936178112" lon="8.341282311122674"><ele>144.0</ele><time>2026-04-23T15:40:06.999Z</time></trkpt><trkpt lat="44.74866782236919" lon="8.34133416569946"><ele>144.00000000000003</ele><time>2026-04-23T15:40:36Z</time></trkpt><trkpt lat="44.74860410567816" lon="8.341341807283754"><ele>144.0</ele><time>2026-04-23T15:40:41Z</time></trkpt><trkpt lat="44.7485319109787" lon="8.341358759196577"><ele>144.00000000000003</ele><time>2026-04-23T15:40:47Z</time></trkpt><trkpt lat="44.7484643836583" lon="8.341387037649097"><ele>144.0</ele><time>2026-04-23T15:40:52.999Z</time></trkpt><trkpt lat="44.7484583593795" lon="8.341484718702311"><ele>144.0</ele><time>2026-04-23T15:40:58.999Z</time></trkpt><trkpt lat="44.7485266501292" lon="8.341524772697149"><ele>144.0</ele><time>2026-04-23T15:41:04.999Z</time></trkpt><trkpt lat="44.74858253900063" lon="8.341569654624898"><ele>144.0</ele><time>2026-04-23T15:41:10.999Z</time></trkpt><trkpt lat="44.74863432708498" lon="8.341622563584973"><ele>144.00000000000003</ele><time>2026-04-23T15:41:16.999Z</time></trkpt><trkpt lat="44.74869394963729" lon="8.341661249432608"><ele>144.0</ele><time>2026-04-23T15:41:22.999Z</time></trkpt><trkpt lat="44.74874993679413" lon="8.341704337454086"><ele>144.00000000000003</ele><time>2026-04-23T15:41:28.999Z</time></trkpt><trkpt lat="44.74880959955402" lon="8.341744978393042"><ele>144.0</ele><time>2026-04-23T15:41:34.999Z</time></trkpt><trkpt lat="44.748868285287344" lon="8.341788798570406"><ele>144.0</ele><time>2026-04-23T15:41:40.999Z</time></trkpt><trkpt lat="44.748925156340384" lon="8.341841193626308"><ele>144.0</ele><time>2026-04-23T15:41:46.999Z</time></trkpt><trkpt lat="44.74898426015611" lon="8.341884525482337"><ele>144.0</ele><time>2026-04-23T15:41:51.999Z</time></trkpt><trkpt lat="44.74904065936284" lon="8.341926228859887"><ele>144.00000000000003</ele><time>2026-04-23T15:41:57.999Z</time></trkpt><trkpt lat="44.74910013419646" lon="8.341985327838968"><ele>144.0</ele><time>2026-04-23T15:42:03.999Z</time></trkpt><trkpt lat="44.749162598022686" lon="8.34202987734492"><ele>144.00000000000003</ele><time>2026-04-23T15:42:09.999Z</time></trkpt><trkpt lat="44.74922093396626" lon="8.34207572370862"><ele>144.0</ele><time>2026-04-23T15:42:16.999Z</time></trkpt><trkpt lat="44.74929057151535" lon="8.342116061635975"><ele>144.0</ele><time>2026-04-23T15:42:24Z</time></trkpt><trkpt lat="44.74935546996467" lon="8.342148532939586"><ele>144.0</ele><time>2026-04-23T15:42:30Z</time></trkpt><trkpt lat="44.74940906532794" lon="8.342205197190184"><ele>144.0</ele><time>2026-04-23T15:42:36Z</time></trkpt><trkpt lat="44.74946982101708" lon="8.342255395185907"><ele>144.00000000000003</ele><time>2026-04-23T15:42:42Z</time></trkpt><trkpt lat="44.749530707725135" lon="8.342306895203775"><ele>144.0</ele><time>2026-04-23T15:42:48Z</time></trkpt><trkpt lat="44.74959168706904" lon="8.342366053618605"><ele>144.00000000000003</ele><time>2026-04-23T15:42:55Z</time></trkpt><trkpt lat="44.749662662684166" lon="8.342412495984377"><ele>144.0</ele><time>2026-04-23T15:43:01Z</time></trkpt><trkpt lat="44.749728293662464" lon="8.342454238871778"><ele>144.0</ele><time>2026-04-23T15:43:06.999Z</time></trkpt><trkpt lat="44.74979030029154" lon="8.342502222918728"><ele>144.0</ele><time>2026-04-23T15:43:12.999Z</time></trkpt><trkpt lat="44.74985035724506" lon="8.342552420026841"><ele>144.0</ele><time>2026-04-23T15:43:18.999Z</time></trkpt><trkpt lat="44.74991071455044" lon="8.342587200132618"><ele>144.00000000000003</ele><time>2026-04-23T15:43:23.999Z</time></trkpt><trkpt lat="44.74997083692186" lon="8.342628089361899"><ele>144.0</ele><time>2026-04-23T15:43:28.999Z</time></trkpt><trkpt lat="44.750031597956365" lon="8.342664244716415"><ele>144.00000000000003</ele><time>2026-04-23T15:43:33.999Z</time></trkpt><trkpt lat="44.75009999170624" lon="8.342703626464946"><ele>144.0</ele><time>2026-04-23T15:43:39.999Z</time></trkpt><trkpt lat="44.75015807844617" lon="8.342754912529173"><ele>144.0</ele><time>2026-04-23T15:43:45.999Z</time></trkpt><trkpt lat="44.75021656860009" lon="8.342804390509118"><ele>144.0</ele><time>2026-04-23T15:43:50.999Z</time></trkpt><trkpt lat="44.750283492664586" lon="8.342837377580366"><ele>144.0</ele><time>2026-04-23T15:43:56.999Z</time></trkpt><trkpt lat="44.75034544656569" lon="8.342892826418353"><ele>144.00000000000003</ele><time>2026-04-23T15:44:03.999Z</time></trkpt><trkpt lat="44.75041035758904" lon="8.342926915334155"><ele>144.0</ele><time>2026-04-23T15:44:09.999Z</time></trkpt><trkpt lat="44.75047403936998" lon="8.342976536564624"><ele>143.71428571428572</ele><time>2026-04-23T15:44:15.999Z</time></trkpt><trkpt lat="44.75052691585174" lon="8.343025633760805"><ele>143.42857142857144</ele><time>2026-04-23T15:44:20.999Z</time></trkpt><trkpt lat="44.75059411790022" lon="8.343081371695202"><ele>143.14285714285714</ele><time>2026-04-23T15:44:27Z</time></trkpt><trkpt lat="44.75065061677267" lon="8.343122284563508"><ele>142.85714285714286</ele><time>2026-04-23T15:44:33Z</time></trkpt><trkpt lat="44.75071172459927" lon="8.343145179675368"><ele>142.57142857142856</ele><time>2026-04-23T15:44:39Z</time></trkpt><trkpt lat="44.75076804239093" lon="8.343194485426233"><ele>142.28571428571428</ele><time>2026-04-23T15:44:44Z</time></trkpt><trkpt lat="44.75082536497235" lon="8.343242520016128"><ele>142.0</ele><time>2026-04-23T15:44:50Z</time></trkpt><trkpt lat="44.75089496147181" lon="8.34327149203124"><ele>142.0</ele><time>2026-04-23T15:44:56Z</time></trkpt><trkpt lat="44.75094863238672" lon="8.34332005754882"><ele>142.0</ele><time>2026-04-23T15:45:01Z</time></trkpt><trkpt lat="44.75101023123905" lon="8.343366374887125"><ele>142.0</ele><time>2026-04-23T15:45:06.999Z</time></trkpt><trkpt lat="44.75107243261427" lon="8.343407745644559"><ele>142.0</ele><time>2026-04-23T15:45:12.999Z</time></trkpt><trkpt lat="44.75112933958182" lon="8.343451764288638"><ele>142.0</ele><time>2026-04-23T15:45:18.999Z</time></trkpt><trkpt lat="44.75119252726243" lon="8.343496859175886"><ele>142.0</ele><time>2026-04-23T15:45:24.999Z</time></trkpt><trkpt lat="44.751247215776715" lon="8.343541431231674"><ele>142.0</ele><time>2026-04-23T15:45:29.999Z</time></trkpt><trkpt lat="44.75130372560031" lon="8.343581585706266"><ele>142.28571428571428</ele><time>2026-04-23T15:45:35.999Z</time></trkpt><trkpt lat="44.75136521987983" lon="8.343617790720455"><ele>142.57142857142856</ele><time>2026-04-23T15:45:41.999Z</time></trkpt><trkpt lat="44.75142935780242" lon="8.343655082007478"><ele>142.85714285714286</ele><time>2026-04-23T15:45:47.999Z</time></trkpt><trkpt lat="44.75148937927518" lon="8.343704248988864"><ele>143.14285714285714</ele><time>2026-04-23T15:45:53.999Z</time></trkpt><trkpt lat="44.751549616483395" lon="8.343747039462235"><ele>143.42857142857144</ele><time>2026-04-23T15:45:59.999Z</time></trkpt><trkpt lat="44.751612551214954" lon="8.34379284600015"><ele>143.71428571428572</ele><time>2026-04-23T15:46:05.999Z</time></trkpt><trkpt lat="44.75166818637488" lon="8.343837092216399"><ele>144.0</ele><time>2026-04-23T15:46:11.999Z</time></trkpt><trkpt lat="44.75172578684125" lon="8.343875435151876"><ele>143.71428571428572</ele><time>2026-04-23T15:46:17.999Z</time></trkpt><trkpt lat="44.75178602018287" lon="8.34391061052883"><ele>143.42857142857144</ele><time>2026-04-23T15:46:23.999Z</time></trkpt><trkpt lat="44.75184552114112" lon="8.343960995315525"><ele>143.14285714285714</ele><time>2026-04-23T15:46:29.999Z</time></trkpt><trkpt lat="44.751906107577184" lon="8.344016730914326"><ele>142.85714285714286</ele><time>2026-04-23T15:46:36Z</time></trkpt><trkpt lat="44.751974744350036" lon="8.34405914562743"><ele>142.57142857142856</ele><time>2026-04-23T15:46:42Z</time></trkpt><trkpt lat="44.752037309682045" lon="8.34410015713503"><ele>142.28571428571428</ele><time>2026-04-23T15:46:48Z</time></trkpt><trkpt lat="44.752097722788115" lon="8.344143414847784"><ele>142.0</ele><time>2026-04-23T15:46:53Z</time></trkpt><trkpt lat="44.752162983301325" lon="8.344198973566654"><ele>141.85714285714286</ele><time>2026-04-23T15:47:00Z</time></trkpt><trkpt lat="44.75222425958779" lon="8.34424169496683"><ele>141.7142857142857</ele><time>2026-04-23T15:47:06Z</time></trkpt><trkpt lat="44.75228290419586" lon="8.344283337715419"><ele>141.57142857142856</ele><time>2026-04-23T15:47:12Z</time></trkpt><trkpt lat="44.75234221946149" lon="8.344324858240782"><ele>141.42857142857142</ele><time>2026-04-23T15:47:16.999Z</time></trkpt><trkpt lat="44.752402920550786" lon="8.344363444511458"><ele>141.28571428571428</ele><time>2026-04-23T15:47:22.999Z</time></trkpt><trkpt lat="44.75246280651564" lon="8.344407886119553"><ele>141.14285714285714</ele><time>2026-04-23T15:47:28.999Z</time></trkpt><trkpt lat="44.75252777890866" lon="8.344448843330964"><ele>141.0</ele><time>2026-04-23T15:47:35.999Z</time></trkpt><trkpt lat="44.752586803633335" lon="8.344494415351665"><ele>141.0</ele><time>2026-04-23T15:47:40.999Z</time></trkpt><trkpt lat="44.75264110994683" lon="8.344541365349361"><ele>141.0</ele><time>2026-04-23T15:47:45.999Z</time></trkpt><trkpt lat="44.75269379320415" lon="8.344600192081602"><ele>141.0</ele><time>2026-04-23T15:47:51.999Z</time></trkpt><trkpt lat="44.75275506793055" lon="8.344641246267436"><ele>141.0</ele><time>2026-04-23T15:47:57.999Z</time></trkpt><trkpt lat="44.75280995877044" lon="8.344696190376363"><ele>141.0</ele><time>2026-04-23T15:48:02.999Z</time></trkpt><trkpt lat="44.7528732463989" lon="8.344741250717274"><ele>141.0</ele><time>2026-04-23T15:48:07.999Z</time></trkpt><trkpt lat="44.75293245863792" lon="8.344780843738189"><ele>141.0</ele><time>2026-04-23T15:48:13.999Z</time></trkpt><trkpt lat="44.75299435829258" lon="8.344820992268856"><ele>141.14285714285714</ele><time>2026-04-23T15:48:19.999Z</time></trkpt><trkpt lat="44.75305753452292" lon="8.344863419774324"><ele>141.28571428571428</ele><time>2026-04-23T15:48:25.999Z</time></trkpt><trkpt lat="44.75312070628593" lon="8.344910122461418"><ele>141.42857142857142</ele><time>2026-04-23T15:48:32.999Z</time></trkpt><trkpt lat="44.75317697627558" lon="8.344964988050226"><ele>141.57142857142856</ele><time>2026-04-23T15:48:39Z</time></trkpt><trkpt lat="44.75324638424185" lon="8.345012726592783"><ele>141.7142857142857</ele><time>2026-04-23T15:48:46Z</time></trkpt><trkpt lat="44.75331145031344" lon="8.345053202025962"><ele>141.85714285714286</ele><time>2026-04-23T15:48:52Z</time></trkpt><trkpt lat="44.75337407780787" lon="8.345096119101566"><ele>142.0</ele><time>2026-04-23T15:48:58Z</time></trkpt><trkpt lat="44.75343344904851" lon="8.345148688534955"><ele>142.0</ele><time>2026-04-23T15:49:04Z</time></trkpt><trkpt lat="44.75349152732624" lon="8.345187610639737"><ele>142.0</ele><time>2026-04-23T15:49:10Z</time></trkpt><trkpt lat="44.75354797573828" lon="8.34523882079846"><ele>142.0</ele><time>2026-04-23T15:49:16Z</time></trkpt><trkpt lat="44.75361050340773" lon="8.34527701342343"><ele>142.0</ele><time>2026-04-23T15:49:21.999Z</time></trkpt><trkpt lat="44.75366808032941" lon="8.34532161530117"><ele>142.0</ele><time>2026-04-23T15:49:27.999Z</time></trkpt><trkpt lat="44.75374107903225" lon="8.345361782534352"><ele>142.0</ele><time>2026-04-23T15:49:35.999Z</time></trkpt><trkpt lat="44.75380106508841" lon="8.345390324032781"><ele>142.0</ele><time>2026-04-23T15:49:40.999Z</time></trkpt><trkpt lat="44.75385692186576" lon="8.345446725985711"><ele>142.28571428571428</ele><time>2026-04-23T15:49:51.999Z</time></trkpt><trkpt lat="44.753912549464225" lon="8.345488698227639"><ele>142.57142857142856</ele><time>2026-04-23T15:49:57.999Z</time></trkpt><trkpt lat="44.75396640107684" lon="8.345542878663428"><ele>142.85714285714286</ele><time>2026-04-23T15:50:03.999Z</time></trkpt><trkpt lat="44.75403293832914" lon="8.345584095549075"><ele>143.14285714285714</ele><time>2026-04-23T15:50:09.999Z</time></trkpt><trkpt lat="44.754094319696314" lon="8.345632811959376"><ele>143.42857142857144</ele><time>2026-04-23T15:50:15.999Z</time></trkpt><trkpt lat="44.75415859735263" lon="8.345682187239424"><ele>143.71428571428572</ele><time>2026-04-23T15:50:22.999Z</time></trkpt><trkpt lat="44.75421536045023" lon="8.345729857106637"><ele>144.0</ele><time>2026-04-23T15:50:28.999Z</time></trkpt><trkpt lat="44.75427756974018" lon="8.34576693765814"><ele>144.14285714285717</ele><time>2026-04-23T15:50:34.999Z</time></trkpt><trkpt lat="44.75433777089947" lon="8.345802706277976"><ele>144.28571428571428</ele><time>2026-04-23T15:50:39.999Z</time></trkpt><trkpt lat="44.75439974026857" lon="8.345842680478988"><ele>144.42857142857144</ele><time>2026-04-23T15:50:46Z</time></trkpt><trkpt lat="44.754458803867884" lon="8.345885585238847"><ele>144.57142857142858</ele><time>2026-04-23T15:50:52Z</time></trkpt><trkpt lat="44.754517305527585" lon="8.34593175177493"><ele>144.71428571428572</ele><time>2026-04-23T15:50:58Z</time></trkpt><trkpt lat="44.7545786969442" lon="8.345984807994538"><ele>144.85714285714286</ele><time>2026-04-23T15:51:04Z</time></trkpt><trkpt lat="44.75463929657384" lon="8.346025643382816"><ele>145.0</ele><time>2026-04-23T15:51:10Z</time></trkpt><trkpt lat="44.75470402320385" lon="8.346059377643545"><ele>144.71428571428572</ele><time>2026-04-23T15:51:16Z</time></trkpt><trkpt lat="44.75476423652732" lon="8.346108049176646"><ele>144.42857142857144</ele><time>2026-04-23T15:51:22Z</time></trkpt><trkpt lat="44.7548250322744" lon="8.346156242632745"><ele>144.14285714285714</ele><time>2026-04-23T15:51:27.999Z</time></trkpt><trkpt lat="44.75488487123947" lon="8.346200054209625"><ele>143.85714285714286</ele><time>2026-04-23T15:51:34.999Z</time></trkpt><trkpt lat="44.75484081693097" lon="8.34612160228336"><ele>143.57142857142856</ele><time>2026-04-23T15:52:04.999Z</time></trkpt><trkpt lat="44.75477387922469" lon="8.346078211444606"><ele>143.28571428571428</ele><time>2026-04-23T15:52:11.999Z</time></trkpt><trkpt lat="44.75471023100688" lon="8.346025936810067"><ele>143.0</ele><time>2026-04-23T15:52:18.999Z</time></trkpt><trkpt lat="44.75465099977341" lon="8.34597832735375"><ele>142.99999999999997</ele><time>2026-04-23T15:52:24.999Z</time></trkpt><trkpt lat="44.754587873911774" lon="8.345939885621618"><ele>143.0</ele><time>2026-04-23T15:52:30.999Z</time></trkpt><trkpt lat="44.75452405203318" lon="8.345896079223552"><ele>143.0</ele><time>2026-04-23T15:52:36.999Z</time></trkpt><trkpt lat="44.75446809125118" lon="8.345848789091901"><ele>143.0</ele><time>2026-04-23T15:52:42.999Z</time></trkpt><trkpt lat="44.75440129335175" lon="8.345809728622894"><ele>143.0</ele><time>2026-04-23T15:52:48.999Z</time></trkpt><trkpt lat="44.754340284672196" lon="8.34576843272527"><ele>142.99999999999997</ele><time>2026-04-23T15:52:55Z</time></trkpt><trkpt lat="44.75427554080176" lon="8.34572213198487"><ele>143.0</ele><time>2026-04-23T15:53:01Z</time></trkpt><trkpt lat="44.75421650319963" lon="8.345685654787347"><ele>143.14285714285714</ele><time>2026-04-23T15:53:07Z</time></trkpt><trkpt lat="44.754153954996504" lon="8.345646085748507"><ele>143.28571428571428</ele><time>2026-04-23T15:53:12Z</time></trkpt><trkpt lat="44.75409304424843" lon="8.34560289156473"><ele>143.42857142857144</ele><time>2026-04-23T15:53:18Z</time></trkpt><trkpt lat="44.75403444872174" lon="8.3455663683007"><ele>143.57142857142856</ele><time>2026-04-23T15:53:23.999Z</time></trkpt><trkpt lat="44.75396934991475" lon="8.345517980877773"><ele>143.71428571428572</ele><time>2026-04-23T15:53:29.999Z</time></trkpt><trkpt lat="44.75391478420934" lon="8.34546603012824"><ele>143.85714285714286</ele><time>2026-04-23T15:53:35.999Z</time></trkpt><trkpt lat="44.753857640063" lon="8.345424269649168"><ele>144.0</ele><time>2026-04-23T15:53:41.999Z</time></trkpt><trkpt lat="44.75379905862184" lon="8.34537696157136"><ele>144.00000000000003</ele><time>2026-04-23T15:53:47.999Z</time></trkpt><trkpt lat="44.75374205730271" lon="8.345324744408302"><ele>144.0</ele><time>2026-04-23T15:53:52.999Z</time></trkpt><trkpt lat="44.75367805576721" lon="8.345279247547658"><ele>144.0</ele><time>2026-04-23T15:53:58.999Z</time></trkpt><trkpt lat="44.75361150434933" lon="8.345234850053014"><ele>144.0</ele><time>2026-04-23T15:54:04.999Z</time></trkpt><trkpt lat="44.75354781795456" lon="8.34518964011016"><ele>144.0</ele><time>2026-04-23T15:54:10.999Z</time></trkpt><trkpt lat="44.75348448943803" lon="8.345138110291881"><ele>144.00000000000003</ele><time>2026-04-23T15:54:17.999Z</time></trkpt><trkpt lat="44.75342410567532" lon="8.345089488835356"><ele>144.0</ele><time>2026-04-23T15:54:23.999Z</time></trkpt><trkpt lat="44.753357230411744" lon="8.345036049812933"><ele>143.71428571428572</ele><time>2026-04-23T15:54:30.999Z</time></trkpt><trkpt lat="44.753290963945034" lon="8.345005335713553"><ele>143.42857142857144</ele><time>2026-04-23T15:54:36.999Z</time></trkpt><trkpt lat="44.75323573615052" lon="8.34496062583081"><ele>143.14285714285714</ele><time>2026-04-23T15:54:41.999Z</time></trkpt><trkpt lat="44.75317770510051" lon="8.344922856599798"><ele>142.85714285714286</ele><time>2026-04-23T15:54:47.999Z</time></trkpt><trkpt lat="44.75311936259359" lon="8.344883324901778"><ele>142.57142857142856</ele><time>2026-04-23T15:54:52.999Z</time></trkpt><trkpt lat="44.75305950432139" lon="8.344841519413112"><ele>142.28571428571428</ele><time>2026-04-23T15:54:59Z</time></trkpt><trkpt lat="44.75299984722968" lon="8.344803527076802"><ele>142.0</ele><time>2026-04-23T15:55:04Z</time></trkpt><trkpt lat="44.75293906718035" lon="8.344757894439622"><ele>142.0</ele><time>2026-04-23T15:55:10Z</time></trkpt><trkpt lat="44.752877680109656" lon="8.344706687189893"><ele>142.0</ele><time>2026-04-23T15:55:16Z</time></trkpt><trkpt lat="44.75282408094889" lon="8.344652840244068"><ele>142.0</ele><time>2026-04-23T15:55:21Z</time></trkpt><trkpt lat="44.75277004846124" lon="8.34460470332173"><ele>142.0</ele><time>2026-04-23T15:55:26.999Z</time></trkpt><trkpt lat="44.752709791147595" lon="8.344574057938289"><ele>142.0</ele><time>2026-04-23T15:55:31.999Z</time></trkpt><trkpt lat="44.75264174087024" lon="8.344543410639682"><ele>142.0</ele><time>2026-04-23T15:55:37.999Z</time></trkpt><trkpt lat="44.752582252123744" lon="8.344495999760962"><ele>142.0</ele><time>2026-04-23T15:55:43.999Z</time></trkpt><trkpt lat="44.75252660951117" lon="8.34445207155635"><ele>141.85714285714286</ele><time>2026-04-23T15:55:48.999Z</time></trkpt><trkpt lat="44.752466737434936" lon="8.344403173003714"><ele>141.7142857142857</ele><time>2026-04-23T15:55:54.999Z</time></trkpt><trkpt lat="44.75240161777519" lon="8.344356721013739"><ele>141.57142857142856</ele><time>2026-04-23T15:56:00.999Z</time></trkpt><trkpt lat="44.75233654091565" lon="8.344309564796001"><ele>141.42857142857142</ele><time>2026-04-23T15:56:07.999Z</time></trkpt><trkpt lat="44.752275412392144" lon="8.34427065186835"><ele>141.28571428571428</ele><time>2026-04-23T15:56:13.999Z</time></trkpt><trkpt lat="44.75221728503712" lon="8.34422113225268"><ele>141.14285714285714</ele><time>2026-04-23T15:56:19.999Z</time></trkpt><trkpt lat="44.752152528401055" lon="8.344166415319584"><ele>141.0</ele><time>2026-04-23T15:56:25.999Z</time></trkpt><trkpt lat="44.75209176059304" lon="8.344126426503022"><ele>141.0</ele><time>2026-04-23T15:56:31.999Z</time></trkpt><trkpt lat="44.75202944742662" lon="8.34408198929018"><ele>141.0</ele><time>2026-04-23T15:56:37.999Z</time></trkpt><trkpt lat="44.75196937341495" lon="8.344037951215709"><ele>141.0</ele><time>2026-04-23T15:56:43.999Z</time></trkpt><trkpt lat="44.75191402575928" lon="8.343994603675167"><ele>141.0</ele><time>2026-04-23T15:56:49.999Z</time></trkpt><trkpt lat="44.75185698149676" lon="8.343951519435533"><ele>141.0</ele><time>2026-04-23T15:56:54.999Z</time></trkpt><trkpt lat="44.75179243460843" lon="8.343906225410032"><ele>141.0</ele><time>2026-04-23T15:57:00.999Z</time></trkpt><trkpt lat="44.75173237730444" lon="8.34386946495905"><ele>141.0</ele><time>2026-04-23T15:57:07Z</time></trkpt><trkpt lat="44.75167340019847" lon="8.343823347929522"><ele>141.42857142857144</ele><time>2026-04-23T15:57:12Z</time></trkpt><trkpt lat="44.75161436797861" lon="8.343784261783211"><ele>141.85714285714286</ele><time>2026-04-23T15:57:19Z</time></trkpt><trkpt lat="44.75154455906889" lon="8.34372845011974"><ele>142.28571428571428</ele><time>2026-04-23T15:57:25Z</time></trkpt><trkpt lat="44.751485778452405" lon="8.343689372000103"><ele>142.71428571428572</ele><time>2026-04-23T15:57:30.999Z</time></trkpt><trkpt lat="44.75142137628079" lon="8.343637018552919"><ele>143.14285714285714</ele><time>2026-04-23T15:57:36.999Z</time></trkpt><trkpt lat="44.75135934134212" lon="8.343605520663552"><ele>143.57142857142858</ele><time>2026-04-23T15:57:42.999Z</time></trkpt><trkpt lat="44.751305461354306" lon="8.343556907402178"><ele>144.0</ele><time>2026-04-23T15:57:48.999Z</time></trkpt><trkpt lat="44.75124057924084" lon="8.343513386879122"><ele>144.00000000000003</ele><time>2026-04-23T15:57:54.999Z</time></trkpt><trkpt lat="44.751183770925714" lon="8.343473879577067"><ele>144.0</ele><time>2026-04-23T15:58:00.999Z</time></trkpt><trkpt lat="44.7511188930835" lon="8.343421744896288"><ele>144.0</ele><time>2026-04-23T15:58:06.999Z</time></trkpt><trkpt lat="44.75105143121966" lon="8.343372490914211"><ele>144.0</ele><time>2026-04-23T15:58:13.999Z</time></trkpt><trkpt lat="44.750987345422224" lon="8.34332794626145"><ele>144.0</ele><time>2026-04-23T15:58:19.999Z</time></trkpt><trkpt lat="44.75092849901077" lon="8.343283669295028"><ele>144.00000000000003</ele><time>2026-04-23T15:58:26.999Z</time></trkpt><trkpt lat="44.750869013059194" lon="8.343251897987692"><ele>144.0</ele><time>2026-04-23T15:58:32.999Z</time></trkpt><trkpt lat="44.750798016117706" lon="8.343215020836592"><ele>143.71428571428572</ele><time>2026-04-23T15:58:39.999Z</time></trkpt><trkpt lat="44.75074518787091" lon="8.34316538481216"><ele>143.42857142857144</ele><time>2026-04-23T15:58:44.999Z</time></trkpt><trkpt lat="44.75068770154676" lon="8.343111570987983"><ele>143.14285714285714</ele><time>2026-04-23T15:58:50.999Z</time></trkpt><trkpt lat="44.750626047760875" lon="8.343063352058072"><ele>142.85714285714286</ele><time>2026-04-23T15:58:56.999Z</time></trkpt><trkpt lat="44.7505606653526" lon="8.343022682201253"><ele>142.57142857142856</ele><time>2026-04-23T15:59:02.999Z</time></trkpt><trkpt lat="44.750498058817364" lon="8.342965445650053"><ele>142.28571428571428</ele><time>2026-04-23T15:59:10Z</time></trkpt><trkpt lat="44.75043324589973" lon="8.342913601916793"><ele>142.0</ele><time>2026-04-23T15:59:17Z</time></trkpt><trkpt lat="44.750371991166695" lon="8.342873778246224"><ele>142.0</ele><time>2026-04-23T15:59:23Z</time></trkpt><trkpt lat="44.75031087847749" lon="8.342831804062195"><ele>142.0</ele><time>2026-04-23T15:59:29Z</time></trkpt><trkpt lat="44.750250070977046" lon="8.342801918510217"><ele>142.0</ele><time>2026-04-23T15:59:34.999Z</time></trkpt><trkpt lat="44.75018974503194" lon="8.342743573528654"><ele>142.0</ele><time>2026-04-23T15:59:41.999Z</time></trkpt><trkpt lat="44.75013195414381" lon="8.342703534181592"><ele>142.0</ele><time>2026-04-23T15:59:47.999Z</time></trkpt><trkpt lat="44.75007481893382" lon="8.342655220158791"><ele>142.0</ele><time>2026-04-23T15:59:53.999Z</time></trkpt><trkpt lat="44.75001054477647" lon="8.342604541350116"><ele>142.0</ele><time>2026-04-23T15:59:59.999Z</time></trkpt><trkpt lat="44.74994562820507" lon="8.34256561921747"><ele>142.28571428571428</ele><time>2026-04-23T16:00:06.999Z</time></trkpt><trkpt lat="44.74987871632592" lon="8.342512994595012"><ele>142.57142857142856</ele><time>2026-04-23T16:00:12.999Z</time></trkpt><trkpt lat="44.749809739097344" lon="8.342464702592961"><ele>142.85714285714286</ele><time>2026-04-23T16:00:19.999Z</time></trkpt><trkpt lat="44.74975123913966" lon="8.342419385996875"><ele>143.14285714285714</ele><time>2026-04-23T16:00:25.999Z</time></trkpt><trkpt lat="44.74968734042453" lon="8.342375215278306"><ele>143.42857142857144</ele><time>2026-04-23T16:00:31.999Z</time></trkpt><trkpt lat="44.74961831820152" lon="8.342326952014448"><ele>143.71428571428572</ele><time>2026-04-23T16:00:38.999Z</time></trkpt><trkpt lat="44.74955711904217" lon="8.342288422961579"><ele>144.0</ele><time>2026-04-23T16:00:44.999Z</time></trkpt><trkpt lat="44.74949752141434" lon="8.342251631368287"><ele>144.00000000000003</ele><time>2026-04-23T16:00:49.999Z</time></trkpt><trkpt lat="44.74944496752465" lon="8.342202129633979"><ele>144.0</ele><time>2026-04-23T16:00:55.999Z</time></trkpt><trkpt lat="44.74937793364857" lon="8.342161487858332"><ele>144.0</ele><time>2026-04-23T16:01:01.999Z</time></trkpt><trkpt lat="44.749317088334145" lon="8.342108809474395"><ele>144.0</ele><time>2026-04-23T16:01:07.999Z</time></trkpt><trkpt lat="44.749254642551136" lon="8.34205745748076"><ele>144.0</ele><time>2026-04-23T16:01:13.999Z</time></trkpt><trkpt lat="44.74919736564603" lon="8.342011024873104"><ele>144.00000000000003</ele><time>2026-04-23T16:01:19.999Z</time></trkpt><trkpt lat="44.749137067070166" lon="8.341970897125416"><ele>144.0</ele><time>2026-04-23T16:01:25.999Z</time></trkpt><trkpt lat="44.74907855798108" lon="8.34192618893192"><ele>144.00000000000003</ele><time>2026-04-23T16:01:31.999Z</time></trkpt><trkpt lat="44.74901477169321" lon="8.341878301382058"><ele>144.0</ele><time>2026-04-23T16:01:37.999Z</time></trkpt><trkpt lat="44.74895320994322" lon="8.341834910507023"><ele>144.0</ele><time>2026-04-23T16:01:43.999Z</time></trkpt><trkpt lat="44.74888950784853" lon="8.341784194183152"><ele>144.0</ele><time>2026-04-23T16:01:50.999Z</time></trkpt><trkpt lat="44.74882948527401" lon="8.341733015024337"><ele>144.0</ele><time>2026-04-23T16:01:56.999Z</time></trkpt><trkpt lat="44.748769154903755" lon="8.341693805446287"><ele>144.00000000000003</ele><time>2026-04-23T16:02:02.999Z</time></trkpt><trkpt lat="44.74870206165111" lon="8.341642915788192"><ele>144.0</ele><time>2026-04-23T16:02:09.999Z</time></trkpt><trkpt lat="44.74863840177998" lon="8.341606387151757"><ele>144.00000000000003</ele><time>2026-04-23T16:02:30.999Z</time></trkpt><trkpt lat="44.748585212060604" lon="8.341554127925376"><ele>144.0</ele><time>2026-04-23T16:02:35.999Z</time></trkpt><trkpt lat="44.748536861229375" lon="8.341495871264083"><ele>144.0</ele><time>2026-04-23T16:02:41.999Z</time></trkpt><trkpt lat="44.74847130124976" lon="8.341460461055185"><ele>144.0</ele><time>2026-04-23T16:02:47.999Z</time></trkpt><trkpt lat="44.74840673587261" lon="8.341420171673144"><ele>144.0</ele><time>2026-04-23T16:02:53.999Z</time></trkpt><trkpt lat="44.748346905965725" lon="8.341377013846513"><ele>144.00000000000003</ele><time>2026-04-23T16:02:59.999Z</time></trkpt><trkpt lat="44.74829105717515" lon="8.341321073103114"><ele>144.0</ele><time>2026-04-23T16:03:04.999Z</time></trkpt><trkpt lat="44.74823400081059" lon="8.341275531221253"><ele>144.00000000000003</ele><time>2026-04-23T16:03:10.999Z</time></trkpt><trkpt lat="44.74817665139217" lon="8.341220203907556"><ele>144.0</ele><time>2026-04-23T16:03:16.999Z</time></trkpt><trkpt lat="44.74812429932472" lon="8.341169113519616"><ele>144.0</ele><time>2026-04-23T16:03:21.999Z</time></trkpt><trkpt lat="44.74807021505453" lon="8.341114506424256"><ele>144.0</ele><time>2026-04-23T16:03:27.999Z</time></trkpt><trkpt lat="44.74800726046777" lon="8.341061034591574"><ele>144.0</ele><time>2026-04-23T16:03:34Z</time></trkpt><trkpt lat="44.7479449399938" lon="8.341008440971933"><ele>144.00000000000003</ele><time>2026-04-23T16:03:40.999Z</time></trkpt><trkpt lat="44.747892877901386" lon="8.340942562813273"><ele>144.0</ele><time>2026-04-23T16:03:46.999Z</time></trkpt><trkpt lat="44.74783695607204" lon="8.34090158079667"><ele>144.00000000000003</ele><time>2026-04-23T16:03:51.999Z</time></trkpt><trkpt lat="44.747780581328364" lon="8.340840311689025"><ele>144.0</ele><time>2026-04-23T16:03:57.999Z</time></trkpt><trkpt lat="44.747717165305886" lon="8.340788401101621"><ele>144.0</ele><time>2026-04-23T16:04:04.999Z</time></trkpt><trkpt lat="44.74766235577282" lon="8.34073768589143"><ele>144.0</ele><time>2026-04-23T16:04:18.999Z</time></trkpt><trkpt lat="44.74760971772328" lon="8.34067428158242"><ele>144.0</ele><time>2026-04-23T16:04:25.999Z</time></trkpt><trkpt lat="44.74755712170174" lon="8.340621495672229"><ele>144.00000000000003</ele><time>2026-04-23T16:04:34.999Z</time></trkpt><trkpt lat="44.74750596903556" lon="8.34056532236839"><ele>144.0</ele><time>2026-04-23T16:04:40.999Z</time></trkpt><trkpt lat="44.74747007297724" lon="8.340479089726188"><ele>143.85714285714286</ele><time>2026-04-23T16:04:47.999Z</time></trkpt><trkpt lat="44.74748717769491" lon="8.340392892369882"><ele>143.71428571428572</ele><time>2026-04-23T16:04:53.999Z</time></trkpt><trkpt lat="44.747525311092986" lon="8.340311657558207"><ele>143.57142857142856</ele><time>2026-04-23T16:04:59.999Z</time></trkpt><trkpt lat="44.74756812515998" lon="8.340231190303019"><ele>143.42857142857144</ele><time>2026-04-23T16:05:05.999Z</time></trkpt><trkpt lat="44.747605236090514" lon="8.340145679278098"><ele>143.28571428571428</ele><time>2026-04-23T16:05:29Z</time></trkpt><trkpt lat="44.7475986630489" lon="8.340050718879828"><ele>143.14285714285714</ele><time>2026-04-23T16:05:52.999Z</time></trkpt><trkpt lat="44.74754597667819" lon="8.33999250029498"><ele>143.0</ele><time>2026-04-23T16:06:37.999Z</time></trkpt><trkpt lat="44.74748521765411" lon="8.339952310506492"><ele>142.99999999999997</ele><time>2026-04-23T16:06:44.999Z</time></trkpt><trkpt lat="44.74742854170033" lon="8.33990948026373"><ele>143.0</ele><time>2026-04-23T16:06:49.999Z</time></trkpt><trkpt lat="44.74737736021054" lon="8.339853983347123"><ele>143.0</ele><time>2026-04-23T16:06:55.999Z</time></trkpt><trkpt lat="44.74732052578065" lon="8.339788983616637"><ele>143.0</ele><time>2026-04-23T16:07:02.999Z</time></trkpt><trkpt lat="44.74726966638062" lon="8.33972273010062"><ele>143.0</ele><time>2026-04-23T16:07:08.999Z</time></trkpt><trkpt lat="44.747217399224446" lon="8.339662068584117"><ele>142.99999999999997</ele><time>2026-04-23T16:07:14.999Z</time></trkpt><trkpt lat="44.7471612689513" lon="8.339595652862336"><ele>143.0</ele><time>2026-04-23T16:07:20.999Z</time></trkpt><trkpt lat="44.747106178291325" lon="8.33952632360724"><ele>142.85714285714283</ele><time>2026-04-23T16:07:27.999Z</time></trkpt><trkpt lat="44.747060267622786" lon="8.339463498058949"><ele>142.71428571428572</ele><time>2026-04-23T16:07:34Z</time></trkpt><trkpt lat="44.74700492904114" lon="8.33941146589707"><ele>142.57142857142856</ele><time>2026-04-23T16:07:40Z</time></trkpt><trkpt lat="44.74695347303165" lon="8.339356896144531"><ele>142.42857142857142</ele><time>2026-04-23T16:07:48Z</time></trkpt><trkpt lat="44.74689871632715" lon="8.339281796804135"><ele>142.28571428571428</ele><time>2026-04-23T16:07:55Z</time></trkpt><trkpt lat="44.74684863085544" lon="8.339225306011517"><ele>142.14285714285714</ele><time>2026-04-23T16:08:00.999Z</time></trkpt><trkpt lat="44.74679968839616" lon="8.33915071365346"><ele>142.0</ele><time>2026-04-23T16:08:06.999Z</time></trkpt><trkpt lat="44.74675044001618" lon="8.339083883125518"><ele>142.28571428571428</ele><time>2026-04-23T16:08:13.999Z</time></trkpt><trkpt lat="44.74670388129883" lon="8.339014933291757"><ele>142.57142857142856</ele><time>2026-04-23T16:08:19.999Z</time></trkpt><trkpt lat="44.74664662744759" lon="8.338947630824592"><ele>142.85714285714286</ele><time>2026-04-23T16:08:26.999Z</time></trkpt><trkpt lat="44.74659814955905" lon="8.338887322603387"><ele>143.14285714285714</ele><time>2026-04-23T16:08:32.999Z</time></trkpt><trkpt lat="44.74654608646624" lon="8.338830770693848"><ele>143.42857142857144</ele><time>2026-04-23T16:08:38.999Z</time></trkpt><trkpt lat="44.74649426773629" lon="8.338763320317035"><ele>143.71428571428572</ele><time>2026-04-23T16:08:44.999Z</time></trkpt><trkpt lat="44.74644445888548" lon="8.338689491854472"><ele>144.0</ele><time>2026-04-23T16:08:50.999Z</time></trkpt><trkpt lat="44.74638907978831" lon="8.33862452633867"><ele>144.00000000000003</ele><time>2026-04-23T16:08:56.999Z</time></trkpt><trkpt lat="44.74632406638483" lon="8.338583118422877"><ele>144.0</ele><time>2026-04-23T16:09:02.999Z</time></trkpt><trkpt lat="44.7462592787416" lon="8.338573208871871"><ele>144.0</ele><time>2026-04-23T16:09:08.999Z</time></trkpt><trkpt lat="44.746194811958944" lon="8.338601009965593"><ele>144.0</ele><time>2026-04-23T16:09:14.999Z</time></trkpt><trkpt lat="44.74613586282665" lon="8.338647405622803"><ele>144.0</ele><time>2026-04-23T16:09:20.999Z</time></trkpt><trkpt lat="44.74608584373623" lon="8.338717119633131"><ele>144.00000000000003</ele><time>2026-04-23T16:09:26.999Z</time></trkpt><trkpt lat="44.746032004284366" lon="8.338786317556798"><ele>144.0</ele><time>2026-04-23T16:09:32.999Z</time></trkpt><trkpt lat="44.745986416010275" lon="8.338861994227868"><ele>144.00000000000003</ele><time>2026-04-23T16:09:38.999Z</time></trkpt><trkpt lat="44.745931769147454" lon="8.338926171910488"><ele>144.0</ele><time>2026-04-23T16:09:44.999Z</time></trkpt><trkpt lat="44.745880933239555" lon="8.338994455693733"><ele>144.0</ele><time>2026-04-23T16:09:50.999Z</time></trkpt><trkpt lat="44.7458396845608" lon="8.33908606530855"><ele>144.0</ele><time>2026-04-23T16:09:57.999Z</time></trkpt><trkpt lat="44.745787469786656" lon="8.339164729978584"><ele>144.0</ele><time>2026-04-23T16:10:03.999Z</time></trkpt><trkpt lat="44.74573909703183" lon="8.33924844578304"><ele>144.00000000000003</ele><time>2026-04-23T16:10:10.999Z</time></trkpt><trkpt lat="44.74568261926049" lon="8.33931528237866"><ele>144.0</ele><time>2026-04-23T16:10:16.999Z</time></trkpt><trkpt lat="44.74563561821475" lon="8.339378991548626"><ele>144.00000000000003</ele><time>2026-04-23T16:10:22.999Z</time></trkpt><trkpt lat="44.74559247630922" lon="8.339443991314406"><ele>144.0</ele><time>2026-04-23T16:10:28.999Z</time></trkpt><trkpt lat="44.74554854043018" lon="8.339513324017139"><ele>144.0</ele><time>2026-04-23T16:10:34.999Z</time></trkpt><trkpt lat="44.74550540284088" lon="8.33958032225477"><ele>144.0</ele><time>2026-04-23T16:10:40.999Z</time></trkpt><trkpt lat="44.74545567346474" lon="8.339651870499704"><ele>144.0</ele><time>2026-04-23T16:10:47.999Z</time></trkpt><trkpt lat="44.745406508140874" lon="8.339715300496964"><ele>144.00000000000003</ele><time>2026-04-23T16:10:54.999Z</time></trkpt><trkpt lat="44.74535732595481" lon="8.339785551936206"><ele>144.0</ele><time>2026-04-23T16:11:01.999Z</time></trkpt><trkpt lat="44.7453109395188" lon="8.339858552196548"><ele>143.85714285714286</ele><time>2026-04-23T16:11:08.999Z</time></trkpt><trkpt lat="44.74526268809273" lon="8.339926680272702"><ele>143.71428571428572</ele><time>2026-04-23T16:11:14.999Z</time></trkpt><trkpt lat="44.745218443359484" lon="8.339995894021454"><ele>143.57142857142856</ele><time>2026-04-23T16:11:20.999Z</time></trkpt><trkpt lat="44.745164682860725" lon="8.34006956129449"><ele>143.42857142857144</ele><time>2026-04-23T16:11:26.999Z</time></trkpt><trkpt lat="44.745110674091144" lon="8.340135961637486"><ele>143.28571428571428</ele><time>2026-04-23T16:11:33.999Z</time></trkpt><trkpt lat="44.74505908545936" lon="8.340188931522475"><ele>143.14285714285714</ele><time>2026-04-23T16:11:39.999Z</time></trkpt><trkpt lat="44.74501365870404" lon="8.340256412697299"><ele>143.0</ele><time>2026-04-23T16:11:45.999Z</time></trkpt><trkpt lat="44.74497018790381" lon="8.340330820866068"><ele>143.57142857142856</ele><time>2026-04-23T16:11:51.999Z</time></trkpt><trkpt lat="44.74492252715374" lon="8.34040234421999"><ele>144.14285714285714</ele><time>2026-04-23T16:11:58.999Z</time></trkpt><trkpt lat="44.74487303884139" lon="8.340480575049806"><ele>144.71428571428572</ele><time>2026-04-23T16:12:05.999Z</time></trkpt><trkpt lat="44.74482304966608" lon="8.340538905609822"><ele>145.28571428571428</ele><time>2026-04-23T16:12:11.999Z</time></trkpt><trkpt lat="44.7447825562166" lon="8.340611177919376"><ele>145.85714285714286</ele><time>2026-04-23T16:12:24.999Z</time></trkpt><trkpt lat="44.7447361672462" lon="8.34068347936663"><ele>146.42857142857142</ele><time>2026-04-23T16:12:30.999Z</time></trkpt><trkpt lat="44.74468394595214" lon="8.340742488065295"><ele>147.0</ele><time>2026-04-23T16:12:36.999Z</time></trkpt><trkpt lat="44.74463976787473" lon="8.340807101598584"><ele>147.0</ele><time>2026-04-23T16:12:42.999Z</time></trkpt><trkpt lat="44.74459684098748" lon="8.340875087019038"><ele>147.0</ele><time>2026-04-23T16:12:47.999Z</time></trkpt><trkpt lat="44.74454390309757" lon="8.340939125493321"><ele>147.0</ele><time>2026-04-23T16:12:53.999Z</time></trkpt><trkpt lat="44.74449493329005" lon="8.341010250300224"><ele>147.0</ele><time>2026-04-23T16:12:59.999Z</time></trkpt><trkpt lat="44.74444941279548" lon="8.341072831863135"><ele>147.0</ele><time>2026-04-23T16:13:04.999Z</time></trkpt><trkpt lat="44.744399427636495" lon="8.341136591504789"><ele>147.0</ele><time>2026-04-23T16:13:10.999Z</time></trkpt><trkpt lat="44.744346619373125" lon="8.341202325337681"><ele>147.0</ele><time>2026-04-23T16:13:16.999Z</time></trkpt><trkpt lat="44.74430001069862" lon="8.34126697421259"><ele>147.0</ele><time>2026-04-23T16:13:21.999Z</time></trkpt><trkpt lat="44.74425068598713" lon="8.341337991468453"><ele>147.0</ele><time>2026-04-23T16:13:27.999Z</time></trkpt><trkpt lat="44.74419739636721" lon="8.341408477257193"><ele>147.0</ele><time>2026-04-23T16:13:33.999Z</time></trkpt><trkpt lat="44.74415100650845" lon="8.341479399235768"><ele>147.0</ele><time>2026-04-23T16:13:39.999Z</time></trkpt><trkpt lat="44.74410192477764" lon="8.341536944864565"><ele>147.0</ele><time>2026-04-23T16:13:44.999Z</time></trkpt><trkpt lat="44.74404374670284" lon="8.341603590032648"><ele>147.0</ele><time>2026-04-23T16:13:51.999Z</time></trkpt><trkpt lat="44.74397360341342" lon="8.341624095957338"><ele>147.0</ele><time>2026-04-23T16:13:57.999Z</time></trkpt><trkpt lat="44.74391514771945" lon="8.3415703678732"><ele>147.0</ele><time>2026-04-23T16:14:03.999Z</time></trkpt><trkpt lat="44.743853176037206" lon="8.341524763782667"><ele>147.0</ele><time>2026-04-23T16:14:09.999Z</time></trkpt><trkpt lat="44.743793558175405" lon="8.341466251563677"><ele>147.0</ele><time>2026-04-23T16:14:16.999Z</time></trkpt><trkpt lat="44.7437417664965" lon="8.34141422357179"><ele>147.0</ele><time>2026-04-23T16:14:21.999Z</time></trkpt><trkpt lat="44.74368297424971" lon="8.34135137188471"><ele>147.0</ele><time>2026-04-23T16:14:27.999Z</time></trkpt><trkpt lat="44.743620741338056" lon="8.34129844071592"><ele>147.0</ele><time>2026-04-23T16:14:33.999Z</time></trkpt><trkpt lat="44.74356489474356" lon="8.34124613968393"><ele>147.0</ele><time>2026-04-23T16:14:39.999Z</time></trkpt><trkpt lat="44.743512183328164" lon="8.341191235422137"><ele>146.85714285714286</ele><time>2026-04-23T16:14:45.999Z</time></trkpt><trkpt lat="44.743451196952314" lon="8.341146500663827"><ele>146.71428571428572</ele><time>2026-04-23T16:14:51.999Z</time></trkpt><trkpt lat="44.74339317359421" lon="8.34108641118156"><ele>146.57142857142856</ele><time>2026-04-23T16:14:57.999Z</time></trkpt><trkpt lat="44.7433385814039" lon="8.341029422037275"><ele>146.42857142857144</ele><time>2026-04-23T16:15:03.999Z</time></trkpt><trkpt lat="44.74327732934906" lon="8.340981479602577"><ele>146.28571428571428</ele><time>2026-04-23T16:15:09.999Z</time></trkpt><trkpt lat="44.743221029905904" lon="8.340921993578602"><ele>146.14285714285714</ele><time>2026-04-23T16:15:15.999Z</time></trkpt><trkpt lat="44.74316478047282" lon="8.340862651858131"><ele>146.0</ele><time>2026-04-23T16:15:21.999Z</time></trkpt><trkpt lat="44.74310490626644" lon="8.340804859081148"><ele>146.0</ele><time>2026-04-23T16:15:27.999Z</time></trkpt><trkpt lat="44.74304801731521" lon="8.34074731034254"><ele>146.0</ele><time>2026-04-23T16:15:33.999Z</time></trkpt><trkpt lat="44.742991572049725" lon="8.340696268657346"><ele>146.0</ele><time>2026-04-23T16:15:40.999Z</time></trkpt><trkpt lat="44.74293194094429" lon="8.340647157360342"><ele>146.0</ele><time>2026-04-23T16:15:47.999Z</time></trkpt><trkpt lat="44.742870325181755" lon="8.340584431249681"><ele>146.0</ele><time>2026-04-23T16:15:53.999Z</time></trkpt><trkpt lat="44.74281578657507" lon="8.340535826433952"><ele>146.0</ele><time>2026-04-23T16:15:59.999Z</time></trkpt><trkpt lat="44.74276369616951" lon="8.340480333564924"><ele>146.0</ele><time>2026-04-23T16:16:04.999Z</time></trkpt><trkpt lat="44.74270788564142" lon="8.340433552956748"><ele>146.0</ele><time>2026-04-23T16:16:10.999Z</time></trkpt><trkpt lat="44.74265633055982" lon="8.340373367273653"><ele>146.0</ele><time>2026-04-23T16:16:34.999Z</time></trkpt><trkpt lat="44.74259395934504" lon="8.340330959680847"><ele>146.0</ele><time>2026-04-23T16:16:40.999Z</time></trkpt><trkpt lat="44.74253680211603" lon="8.340271523624253"><ele>146.0</ele><time>2026-04-23T16:16:45.999Z</time></trkpt><trkpt lat="44.7424799220571" lon="8.340220562968797"><ele>146.0</ele><time>2026-04-23T16:16:50.999Z</time></trkpt><trkpt lat="44.74241075071668" lon="8.340165503535626"><ele>146.0</ele><time>2026-04-23T16:16:56.999Z</time></trkpt><trkpt lat="44.74234272873259" lon="8.340104827030334"><ele>146.0</ele><time>2026-04-23T16:17:02.999Z</time></trkpt><trkpt lat="44.742282955563425" lon="8.34006070625754"><ele>146.0</ele><time>2026-04-23T16:17:08.999Z</time></trkpt><trkpt lat="44.742219212541016" lon="8.340001732949691"><ele>146.0</ele><time>2026-04-23T16:17:15.999Z</time></trkpt><trkpt lat="44.74216284377586" lon="8.339952767606196"><ele>146.0</ele><time>2026-04-23T16:17:21.999Z</time></trkpt><trkpt lat="44.74211363905005" lon="8.339891281630214"><ele>146.0</ele><time>2026-04-23T16:17:27.999Z</time></trkpt><trkpt lat="44.74205431293652" lon="8.339836511133845"><ele>146.0</ele><time>2026-04-23T16:17:33.999Z</time></trkpt><trkpt lat="44.74199960656631" lon="8.339789706222804"><ele>146.0</ele><time>2026-04-23T16:17:38.999Z</time></trkpt><trkpt lat="44.7419442499062" lon="8.339740117342824"><ele>146.0</ele><time>2026-04-23T16:17:44.999Z</time></trkpt><trkpt lat="44.741896834462544" lon="8.339670919166856"><ele>146.14285714285714</ele><time>2026-04-23T16:17:50.999Z</time></trkpt><trkpt lat="44.74184072856913" lon="8.33960279791236"><ele>146.28571428571428</ele><time>2026-04-23T16:17:56.999Z</time></trkpt><trkpt lat="44.74178292961346" lon="8.339548868384403"><ele>146.42857142857144</ele><time>2026-04-23T16:18:02.999Z</time></trkpt><trkpt lat="44.741719619935886" lon="8.339492394876167"><ele>146.57142857142856</ele><time>2026-04-23T16:18:08.999Z</time></trkpt><trkpt lat="44.74166985187696" lon="8.339433212667739"><ele>146.71428571428572</ele><time>2026-04-23T16:18:14.999Z</time></trkpt><trkpt lat="44.741608624954694" lon="8.339380813473472"><ele>146.85714285714286</ele><time>2026-04-23T16:18:20.999Z</time></trkpt><trkpt lat="44.74155474675533" lon="8.339322147019445"><ele>147.0</ele><time>2026-04-23T16:18:26.999Z</time></trkpt><trkpt lat="44.74150240700448" lon="8.33927142971861"><ele>147.0</ele><time>2026-04-23T16:18:31.999Z</time></trkpt><trkpt lat="44.74144189333867" lon="8.339216616325967"><ele>147.0</ele><time>2026-04-23T16:18:37.999Z</time></trkpt><trkpt lat="44.74138826847204" lon="8.33915919673619"><ele>147.0</ele><time>2026-04-23T16:18:43.999Z</time></trkpt><trkpt lat="44.74133394539244" lon="8.339101411207007"><ele>147.0</ele><time>2026-04-23T16:18:49.999Z</time></trkpt><trkpt lat="44.74126722541621" lon="8.33904149587253"><ele>147.0</ele><time>2026-04-23T16:18:55.999Z</time></trkpt><trkpt lat="44.74121033211606" lon="8.338995110997736"><ele>147.0</ele><time>2026-04-23T16:19:01.999Z</time></trkpt><trkpt lat="44.741155993365595" lon="8.338931638900771"><ele>147.0</ele><time>2026-04-23T16:19:07.999Z</time></trkpt><trkpt lat="44.74110140107406" lon="8.33887271154819"><ele>147.14285714285714</ele><time>2026-04-23T16:19:13.999Z</time></trkpt><trkpt lat="44.741045705697495" lon="8.338807575350872"><ele>147.28571428571428</ele><time>2026-04-23T16:19:19.999Z</time></trkpt><trkpt lat="44.7409820521623" lon="8.338746691361518"><ele>147.42857142857144</ele><time>2026-04-23T16:19:25.999Z</time></trkpt><trkpt lat="44.740923325805745" lon="8.338691552568859"><ele>147.57142857142856</ele><time>2026-04-23T16:19:31.999Z</time></trkpt><trkpt lat="44.74086458474755" lon="8.338637526731208"><ele>147.71428571428572</ele><time>2026-04-23T16:19:37.999Z</time></trkpt><trkpt lat="44.74080662780143" lon="8.338581055146918"><ele>147.85714285714286</ele><time>2026-04-23T16:19:43.999Z</time></trkpt><trkpt lat="44.740746090461165" lon="8.338525623246346"><ele>148.0</ele><time>2026-04-23T16:19:49.999Z</time></trkpt><trkpt lat="44.74068043172399" lon="8.338498700230161"><ele>148.0</ele><time>2026-04-23T16:19:55.999Z</time></trkpt><trkpt lat="44.740615260407864" lon="8.338463511783413"><ele>148.0</ele><time>2026-04-23T16:20:01.999Z</time></trkpt><trkpt lat="44.740551293558866" lon="8.338410395600848"><ele>148.0</ele><time>2026-04-23T16:20:07.999Z</time></trkpt><trkpt lat="44.74049541332193" lon="8.3383650244577"><ele>148.0</ele><time>2026-04-23T16:20:14Z</time></trkpt><trkpt lat="44.740439733909106" lon="8.338318319430359"><ele>148.0</ele><time>2026-04-23T16:20:19Z</time></trkpt><trkpt lat="44.74037871718943" lon="8.33827455181874"><ele>148.0</ele><time>2026-04-23T16:20:25Z</time></trkpt><trkpt lat="44.740322490918516" lon="8.338216991253471"><ele>148.0</ele><time>2026-04-23T16:20:32Z</time></trkpt><trkpt lat="44.740258909440044" lon="8.338180452118847"><ele>148.0</ele><time>2026-04-23T16:20:38Z</time></trkpt><trkpt lat="44.740197594120275" lon="8.338146196247317"><ele>148.0</ele><time>2026-04-23T16:20:43Z</time></trkpt><trkpt lat="44.74013585559626" lon="8.33810622123562"><ele>148.0</ele><time>2026-04-23T16:20:49Z</time></trkpt><trkpt lat="44.740075887660424" lon="8.338064187118883"><ele>148.0</ele><time>2026-04-23T16:20:55Z</time></trkpt><trkpt lat="44.74001660320711" lon="8.338028508737038"><ele>148.0</ele><time>2026-04-23T16:21:01Z</time></trkpt><trkpt lat="44.73995590915084" lon="8.33798741118141"><ele>148.0</ele><time>2026-04-23T16:21:07Z</time></trkpt><trkpt lat="44.73989531116485" lon="8.337950357300368"><ele>148.0</ele><time>2026-04-23T16:21:13Z</time></trkpt><trkpt lat="44.739852193852144" lon="8.33785928112624"><ele>148.0</ele><time>2026-04-23T16:21:19Z</time></trkpt><trkpt lat="44.73979042156328" lon="8.3378195064004"><ele>148.0</ele><time>2026-04-23T16:21:25Z</time></trkpt><trkpt lat="44.739717119116754" lon="8.337804611680827"><ele>148.0</ele><time>2026-04-23T16:21:31Z</time></trkpt><trkpt lat="44.739654737349184" lon="8.337786856705627"><ele>148.0</ele><time>2026-04-23T16:21:36Z</time></trkpt><trkpt lat="44.739598812415856" lon="8.337742986108559"><ele>148.0</ele><time>2026-04-23T16:21:41Z</time></trkpt><trkpt lat="44.73953051564396" lon="8.337704440046972"><ele>148.0</ele><time>2026-04-23T16:21:47Z</time></trkpt><trkpt lat="44.739472697504404" lon="8.33765934555698"><ele>148.0</ele><time>2026-04-23T16:21:52Z</time></trkpt><trkpt lat="44.73941221513017" lon="8.337606960642907"><ele>148.57142857142858</ele><time>2026-04-23T16:21:58Z</time></trkpt><trkpt lat="44.73935741876553" lon="8.337559130685221"><ele>149.14285714285714</ele><time>2026-04-23T16:22:03Z</time></trkpt><trkpt lat="44.739285678595834" lon="8.337526364323269"><ele>149.71428571428572</ele><time>2026-04-23T16:22:09Z</time></trkpt><trkpt lat="44.73921082056696" lon="8.337514985472847"><ele>150.28571428571428</ele><time>2026-04-23T16:22:14.999Z</time></trkpt><trkpt lat="44.739140157933555" lon="8.337489416063853"><ele>150.85714285714286</ele><time>2026-04-23T16:22:22.999Z</time></trkpt><trkpt lat="44.739073091143155" lon="8.337463302878504"><ele>151.42857142857142</ele><time>2026-04-23T16:22:28.999Z</time></trkpt><trkpt lat="44.73900943626314" lon="8.337430861269524"><ele>152.0</ele><time>2026-04-23T16:22:35Z</time></trkpt><trkpt lat="44.738944223931746" lon="8.337405977916536"><ele>152.0</ele><time>2026-04-23T16:22:41Z</time></trkpt><trkpt lat="44.73887278861535" lon="8.337384068548003"><ele>152.0</ele><time>2026-04-23T16:22:48Z</time></trkpt><trkpt lat="44.73880808743252" lon="8.3373601727265"><ele>152.0</ele><time>2026-04-23T16:22:54Z</time></trkpt><trkpt lat="44.738741482846514" lon="8.337326112078792"><ele>152.0</ele><time>2026-04-23T16:23:00Z</time></trkpt><trkpt lat="44.73867579224208" lon="8.337289055211075"><ele>152.0</ele><time>2026-04-23T16:23:19.999Z</time></trkpt><trkpt lat="44.738614615071825" lon="8.337266643049547"><ele>152.0</ele><time>2026-04-23T16:23:25.999Z</time></trkpt><trkpt lat="44.73854796100477" lon="8.337242856124558"><ele>152.0</ele><time>2026-04-23T16:23:31.999Z</time></trkpt><trkpt lat="44.73847945864784" lon="8.33720843067947"><ele>152.0</ele><time>2026-04-23T16:23:37.999Z</time></trkpt><trkpt lat="44.73841782828109" lon="8.337173828396597"><ele>152.0</ele><time>2026-04-23T16:23:43.999Z</time></trkpt><trkpt lat="44.73834825191353" lon="8.337149057551551"><ele>152.0</ele><time>2026-04-23T16:23:59.999Z</time></trkpt><trkpt lat="44.73828207125042" lon="8.337110349645247"><ele>152.0</ele><time>2026-04-23T16:24:06.999Z</time></trkpt><trkpt lat="44.73822078453021" lon="8.337074090227183"><ele>152.0</ele><time>2026-04-23T16:24:12.999Z</time></trkpt><trkpt lat="44.73818001259836" lon="8.336988742123951"><ele>152.0</ele><time>2026-04-23T16:24:19.999Z</time></trkpt><trkpt lat="44.73816911146477" lon="8.336892598718181"><ele>152.0</ele><time>2026-04-23T16:24:26.999Z</time></trkpt><trkpt lat="44.73814891035044" lon="8.336808332597242"><ele>152.0</ele><time>2026-04-23T16:24:54.999Z</time></trkpt><trkpt lat="44.738128945796895" lon="8.336721057229283"><ele>152.0</ele><time>2026-04-23T16:25:02Z</time></trkpt><trkpt lat="44.73811397958402" lon="8.336618700035542"><ele>152.0</ele><time>2026-04-23T16:25:09Z</time></trkpt><trkpt lat="44.73808109962715" lon="8.336542644565002"><ele>152.0</ele><time>2026-04-23T16:25:16Z</time></trkpt><trkpt lat="44.73805547345004" lon="8.336451979703602"><ele>152.0</ele><time>2026-04-23T16:25:54Z</time></trkpt><trkpt lat="44.738034816767644" lon="8.336362984094539"><ele>152.0</ele><time>2026-04-23T16:26:00Z</time></trkpt><trkpt lat="44.73801943309351" lon="8.33626634711862"><ele>152.0</ele><time>2026-04-23T16:26:18.999Z</time></trkpt><trkpt lat="44.73799760000413" lon="8.336181047005725"><ele>152.0</ele><time>2026-04-23T16:26:24.999Z</time></trkpt><trkpt lat="44.73797627156439" lon="8.33609325135429"><ele>152.0</ele><time>2026-04-23T16:26:31Z</time></trkpt><trkpt lat="44.73795367005698" lon="8.336007026048495"><ele>152.0</ele><time>2026-04-23T16:26:37Z</time></trkpt><trkpt lat="44.7379380579521" lon="8.335918102868542"><ele>152.0</ele><time>2026-04-23T16:26:43Z</time></trkpt><trkpt lat="44.7379509216693" lon="8.335823784626848"><ele>152.0</ele><time>2026-04-23T16:26:50Z</time></trkpt><trkpt lat="44.738010964692336" lon="8.335757702242546"><ele>152.0</ele><time>2026-04-23T16:27:41Z</time></trkpt><trkpt lat="44.738047412516615" lon="8.335678679754034"><ele>152.0</ele><time>2026-04-23T16:27:48Z</time></trkpt><trkpt lat="44.73800781380411" lon="8.33560520024839"><ele>152.0</ele><time>2026-04-23T16:27:54Z</time></trkpt><trkpt lat="44.737979300541106" lon="8.335522784699947"><ele>152.0</ele><time>2026-04-23T16:28:02Z</time></trkpt><trkpt lat="44.737947512394385" lon="8.33544325334684"><ele>152.0</ele><time>2026-04-23T16:28:09Z</time></trkpt><trkpt lat="44.7379236230852" lon="8.335355778376135"><ele>152.0</ele><time>2026-04-23T16:28:16Z</time></trkpt><trkpt lat="44.73789109996752" lon="8.335268701142397"><ele>152.0</ele><time>2026-04-23T16:28:24Z</time></trkpt><trkpt lat="44.73786199017719" lon="8.335172357423636"><ele>152.0</ele><time>2026-04-23T16:28:40Z</time></trkpt><trkpt lat="44.73783576442982" lon="8.335081661642377"><ele>152.0</ele><time>2026-04-23T16:28:46Z</time></trkpt><trkpt lat="44.73780398175246" lon="8.334993786701634"><ele>152.0</ele><time>2026-04-23T16:28:53Z</time></trkpt><trkpt lat="44.73777577102177" lon="8.334900707483731"><ele>152.0</ele><time>2026-04-23T16:29:00Z</time></trkpt><trkpt lat="44.7377192302893" lon="8.334829031369392"><ele>152.0</ele><time>2026-04-23T16:29:07Z</time></trkpt><trkpt lat="44.73765967773244" lon="8.334861928983186"><ele>152.0</ele><time>2026-04-23T16:29:12Z</time></trkpt><trkpt lat="44.73760027081878" lon="8.334899711838121"><ele>152.0</ele><time>2026-04-23T16:29:17Z</time></trkpt><trkpt lat="44.73754262138531" lon="8.334941025425739"><ele>152.0</ele><time>2026-04-23T16:29:23Z</time></trkpt><trkpt lat="44.73747093898747" lon="8.334967814746244"><ele>152.0</ele><time>2026-04-23T16:29:29Z</time></trkpt><trkpt lat="44.73741617908434" lon="8.335022767740691"><ele>152.14285714285714</ele><time>2026-04-23T16:29:35Z</time></trkpt><trkpt lat="44.73735504321516" lon="8.335080114972637"><ele>152.2857142857143</ele><time>2026-04-23T16:29:42Z</time></trkpt><trkpt lat="44.73729910831328" lon="8.335137299915719"><ele>152.42857142857144</ele><time>2026-04-23T16:29:48Z</time></trkpt><trkpt lat="44.737236570488975" lon="8.335177846705928"><ele>152.57142857142856</ele><time>2026-04-23T16:29:55Z</time></trkpt><trkpt lat="44.737177302333656" lon="8.335226822596635"><ele>152.71428571428572</ele><time>2026-04-23T16:30:01Z</time></trkpt><trkpt lat="44.73711041730457" lon="8.335272588486546"><ele>152.85714285714286</ele><time>2026-04-23T16:30:07Z</time></trkpt><trkpt lat="44.73705759118702" lon="8.335323157219976"><ele>153.0</ele><time>2026-04-23T16:30:12Z</time></trkpt><trkpt lat="44.73701377878516" lon="8.335394661706072"><ele>153.0</ele><time>2026-04-23T16:30:26Z</time></trkpt><trkpt lat="44.736959408041514" lon="8.335454202852853"><ele>153.0</ele><time>2026-04-23T16:32:07Z</time></trkpt><trkpt lat="44.7368962541936" lon="8.33549890451707"><ele>153.0</ele><time>2026-04-23T16:32:14Z</time></trkpt><trkpt lat="44.73684873050534" lon="8.335560350197198"><ele>153.0</ele><time>2026-04-23T16:32:23Z</time></trkpt><trkpt lat="44.73689726500601" lon="8.335645151605947"><ele>153.0</ele><time>2026-04-23T16:32:37Z</time></trkpt><trkpt lat="44.73696698089342" lon="8.335627948522726"><ele>153.0</ele><time>2026-04-23T16:32:51Z</time></trkpt><trkpt lat="44.73689429496234" lon="8.335598992410983"><ele>153.0</ele><time>2026-04-23T16:33:00Z</time></trkpt><trkpt lat="44.73698189420635" lon="8.335561665795849"><ele>153.0</ele><time>2026-04-23T16:33:03Z</time></trkpt><trkpt lat="44.736999741296934" lon="8.335653895314389"><ele>153.0</ele><time>2026-04-23T16:33:48Z</time></trkpt></trkseg></trk></gpx>